<?xml version="1.0" encoding="UTF-8"?>
<gpx version="1.0" creator="Trackator" xmlns:xsi="http://www.w3.org/2001/XMLSchema-instance" xmlns="http://www.topografix.com/GPX/1/0" xmlns:topografix="http://www.topografix.com/GPX/Private/TopoGrafix/0/1" xsi:schemaLocation="http://www.topografix.com/GPX/1/0 http://www.topografix.com/GPX/1/0/gpx.xsd http://www.topografix.com/GPX/Private/TopoGrafix/0/1 http://www.topografix.com/GPX/Private/TopoGrafix/0/1/topografix.xsd">
<metadata>
<link href="http://www.trackator.com">
<text>Trackator</text>
</link>
</metadata>
<time>2015-05-28T12:31:22Z</time>
<trk>
<name>Track: </name>
<desc>Running</desc>
<trkseg>
<trkpt lat="53.3482556" lon="18.4462025">
<ele>126</ele>
<time>2015-05-28T12:31:22Z</time>
</trkpt>
<trkpt lat="53.3483091" lon="18.4461439">
<ele>119</ele>
<time>2015-05-28T12:31:26Z</time>
</trkpt>
<trkpt lat="53.3483146" lon="18.4461087">
<ele>119</ele>
<time>2015-05-28T12:31:28Z</time>
</trkpt>
<trkpt lat="53.3483311" lon="18.4460658">
<ele>112</ele>
<time>2015-05-28T12:31:30Z</time>
</trkpt>
<trkpt lat="53.3483489" lon="18.4460271">
<ele>110</ele>
<time>2015-05-28T12:31:32Z</time>
</trkpt>
<trkpt lat="53.3483624" lon="18.4459803">
<ele>108</ele>
<time>2015-05-28T12:31:34Z</time>
</trkpt>
<trkpt lat="53.3483601" lon="18.4459547">
<ele>103</ele>
<time>2015-05-28T12:31:36Z</time>
</trkpt>
<trkpt lat="53.3483602" lon="18.4459132">
<ele>102</ele>
<time>2015-05-28T12:31:38Z</time>
</trkpt>
<trkpt lat="53.3483590" lon="18.4458709">
<ele>101</ele>
<time>2015-05-28T12:31:40Z</time>
</trkpt>
<trkpt lat="53.3483513" lon="18.4458204">
<ele>100</ele>
<time>2015-05-28T12:31:42Z</time>
</trkpt>
<trkpt lat="53.3483239" lon="18.4458062">
<ele>100</ele>
<time>2015-05-28T12:31:44Z</time>
</trkpt>
<trkpt lat="53.3483119" lon="18.4457590">
<ele>99</ele>
<time>2015-05-28T12:31:46Z</time>
</trkpt>
<trkpt lat="53.3483037" lon="18.4457036">
<ele>98</ele>
<time>2015-05-28T12:31:48Z</time>
</trkpt>
<trkpt lat="53.3483029" lon="18.4456495">
<ele>97</ele>
<time>2015-05-28T12:31:50Z</time>
</trkpt>
<trkpt lat="53.3483090" lon="18.4456056">
<ele>95</ele>
<time>2015-05-28T12:31:52Z</time>
</trkpt>
<trkpt lat="53.3483145" lon="18.4455532">
<ele>95</ele>
<time>2015-05-28T12:31:54Z</time>
</trkpt>
<trkpt lat="53.3483222" lon="18.4455052">
<ele>94</ele>
<time>2015-05-28T12:31:56Z</time>
</trkpt>
<trkpt lat="53.3483273" lon="18.4454548">
<ele>94</ele>
<time>2015-05-28T12:31:58Z</time>
</trkpt>
<trkpt lat="53.3483340" lon="18.4454065">
<ele>93</ele>
<time>2015-05-28T12:32:00Z</time>
</trkpt>
<trkpt lat="53.3483378" lon="18.4453548">
<ele>93</ele>
<time>2015-05-28T12:32:02Z</time>
</trkpt>
<trkpt lat="53.3483381" lon="18.4452986">
<ele>91</ele>
<time>2015-05-28T12:32:04Z</time>
</trkpt>
<trkpt lat="53.3483335" lon="18.4452473">
<ele>91</ele>
<time>2015-05-28T12:32:06Z</time>
</trkpt>
<trkpt lat="53.3483305" lon="18.4452030">
<ele>89</ele>
<time>2015-05-28T12:32:08Z</time>
</trkpt>
<trkpt lat="53.3483316" lon="18.4451711">
<ele>88</ele>
<time>2015-05-28T12:32:10Z</time>
</trkpt>
<trkpt lat="53.3483399" lon="18.4451433">
<ele>88</ele>
<time>2015-05-28T12:32:12Z</time>
</trkpt>
<trkpt lat="53.3483425" lon="18.4450989">
<ele>88</ele>
<time>2015-05-28T12:32:14Z</time>
</trkpt>
<trkpt lat="53.3483458" lon="18.4450532">
<ele>88</ele>
<time>2015-05-28T12:32:16Z</time>
</trkpt>
<trkpt lat="53.3483510" lon="18.4450119">
<ele>89</ele>
<time>2015-05-28T12:32:18Z</time>
</trkpt>
<trkpt lat="53.3483474" lon="18.4449641">
<ele>89</ele>
<time>2015-05-28T12:32:20Z</time>
</trkpt>
<trkpt lat="53.3483280" lon="18.4449287">
<ele>90</ele>
<time>2015-05-28T12:32:22Z</time>
</trkpt>
<trkpt lat="53.3483042" lon="18.4449035">
<ele>89</ele>
<time>2015-05-28T12:32:24Z</time>
</trkpt>
<trkpt lat="53.3482802" lon="18.4448864">
<ele>89</ele>
<time>2015-05-28T12:32:26Z</time>
</trkpt>
<trkpt lat="53.3482533" lon="18.4448748">
<ele>88</ele>
<time>2015-05-28T12:32:28Z</time>
</trkpt>
<trkpt lat="53.3482268" lon="18.4448610">
<ele>87</ele>
<time>2015-05-28T12:32:30Z</time>
</trkpt>
<trkpt lat="53.3481987" lon="18.4448452">
<ele>86</ele>
<time>2015-05-28T12:32:32Z</time>
</trkpt>
<trkpt lat="53.3481681" lon="18.4448263">
<ele>86</ele>
<time>2015-05-28T12:32:34Z</time>
</trkpt>
<trkpt lat="53.3481398" lon="18.4448049">
<ele>86</ele>
<time>2015-05-28T12:32:36Z</time>
</trkpt>
<trkpt lat="53.3481132" lon="18.4447819">
<ele>86</ele>
<time>2015-05-28T12:32:38Z</time>
</trkpt>
<trkpt lat="53.3480908" lon="18.4447537">
<ele>85</ele>
<time>2015-05-28T12:32:40Z</time>
</trkpt>
<trkpt lat="53.3480704" lon="18.4447212">
<ele>85</ele>
<time>2015-05-28T12:32:42Z</time>
</trkpt>
<trkpt lat="53.3480516" lon="18.4446866">
<ele>85</ele>
<time>2015-05-28T12:32:44Z</time>
</trkpt>
<trkpt lat="53.3480345" lon="18.4446535">
<ele>85</ele>
<time>2015-05-28T12:32:46Z</time>
</trkpt>
<trkpt lat="53.3480219" lon="18.4446341">
<ele>84</ele>
<time>2015-05-28T12:32:48Z</time>
</trkpt>
<trkpt lat="53.3480225" lon="18.4446229">
<ele>85</ele>
<time>2015-05-28T12:32:50Z</time>
</trkpt>
<trkpt lat="53.3480238" lon="18.4446213">
<ele>84</ele>
<time>2015-05-28T12:32:52Z</time>
</trkpt>
<trkpt lat="53.3480239" lon="18.4446234">
<ele>85</ele>
<time>2015-05-28T12:32:54Z</time>
</trkpt>
<trkpt lat="53.3480233" lon="18.4446216">
<ele>85</ele>
<time>2015-05-28T12:32:56Z</time>
</trkpt>
<trkpt lat="53.3480221" lon="18.4446318">
<ele>84</ele>
<time>2015-05-28T12:32:58Z</time>
</trkpt>
<trkpt lat="53.3480206" lon="18.4446292">
<ele>84</ele>
<time>2015-05-28T12:33:00Z</time>
</trkpt>
<trkpt lat="53.3480206" lon="18.4446244">
<ele>84</ele>
<time>2015-05-28T12:33:02Z</time>
</trkpt>
<trkpt lat="53.3480201" lon="18.4446270">
<ele>83</ele>
<time>2015-05-28T12:33:04Z</time>
</trkpt>
<trkpt lat="53.3480192" lon="18.4446302">
<ele>83</ele>
<time>2015-05-28T12:33:06Z</time>
</trkpt>
<trkpt lat="53.3480154" lon="18.4446220">
<ele>83</ele>
<time>2015-05-28T12:33:08Z</time>
</trkpt>
<trkpt lat="53.3480133" lon="18.4446184">
<ele>83</ele>
<time>2015-05-28T12:33:10Z</time>
</trkpt>
<trkpt lat="53.3480148" lon="18.4446123">
<ele>84</ele>
<time>2015-05-28T12:33:12Z</time>
</trkpt>
<trkpt lat="53.3480115" lon="18.4446099">
<ele>84</ele>
<time>2015-05-28T12:33:14Z</time>
</trkpt>
<trkpt lat="53.3480078" lon="18.4446076">
<ele>84</ele>
<time>2015-05-28T12:33:16Z</time>
</trkpt>
<trkpt lat="53.3480049" lon="18.4446065">
<ele>83</ele>
<time>2015-05-28T12:33:18Z</time>
</trkpt>
<trkpt lat="53.3480034" lon="18.4446084">
<ele>84</ele>
<time>2015-05-28T12:33:20Z</time>
</trkpt>
<trkpt lat="53.3480029" lon="18.4446094">
<ele>84</ele>
<time>2015-05-28T12:33:22Z</time>
</trkpt>
<trkpt lat="53.3480028" lon="18.4446096">
<ele>84</ele>
<time>2015-05-28T12:33:24Z</time>
</trkpt>
<trkpt lat="53.3480028" lon="18.4446097">
<ele>84</ele>
<time>2015-05-28T12:33:26Z</time>
</trkpt>
<trkpt lat="53.3480023" lon="18.4446087">
<ele>84</ele>
<time>2015-05-28T12:33:28Z</time>
</trkpt>
<trkpt lat="53.3480029" lon="18.4446067">
<ele>84</ele>
<time>2015-05-28T12:33:30Z</time>
</trkpt>
<trkpt lat="53.3480015" lon="18.4446064">
<ele>84</ele>
<time>2015-05-28T12:33:32Z</time>
</trkpt>
<trkpt lat="53.3479993" lon="18.4446054">
<ele>84</ele>
<time>2015-05-28T12:33:34Z</time>
</trkpt>
<trkpt lat="53.3479929" lon="18.4446077">
<ele>83</ele>
<time>2015-05-28T12:33:36Z</time>
</trkpt>
<trkpt lat="53.3479809" lon="18.4446123">
<ele>82</ele>
<time>2015-05-28T12:33:38Z</time>
</trkpt>
<trkpt lat="53.3479758" lon="18.4446163">
<ele>81</ele>
<time>2015-05-28T12:33:40Z</time>
</trkpt>
<trkpt lat="53.3479745" lon="18.4446174">
<ele>82</ele>
<time>2015-05-28T12:33:42Z</time>
</trkpt>
<trkpt lat="53.3479827" lon="18.4446091">
<ele>82</ele>
<time>2015-05-28T12:33:44Z</time>
</trkpt>
<trkpt lat="53.3479991" lon="18.4445746">
<ele>82</ele>
<time>2015-05-28T12:33:46Z</time>
</trkpt>
<trkpt lat="53.3480093" lon="18.4445294">
<ele>82</ele>
<time>2015-05-28T12:33:48Z</time>
</trkpt>
<trkpt lat="53.3479998" lon="18.4444898">
<ele>81</ele>
<time>2015-05-28T12:33:50Z</time>
</trkpt>
<trkpt lat="53.3479781" lon="18.4444627">
<ele>81</ele>
<time>2015-05-28T12:33:52Z</time>
</trkpt>
<trkpt lat="53.3479546" lon="18.4444363">
<ele>81</ele>
<time>2015-05-28T12:33:54Z</time>
</trkpt>
<trkpt lat="53.3479320" lon="18.4444068">
<ele>80</ele>
<time>2015-05-28T12:33:56Z</time>
</trkpt>
<trkpt lat="53.3479115" lon="18.4443821">
<ele>79</ele>
<time>2015-05-28T12:33:58Z</time>
</trkpt>
<trkpt lat="53.3478884" lon="18.4443606">
<ele>77</ele>
<time>2015-05-28T12:34:00Z</time>
</trkpt>
<trkpt lat="53.3478683" lon="18.4443329">
<ele>78</ele>
<time>2015-05-28T12:34:02Z</time>
</trkpt>
<trkpt lat="53.3478513" lon="18.4442990">
<ele>78</ele>
<time>2015-05-28T12:34:04Z</time>
</trkpt>
<trkpt lat="53.3478358" lon="18.4442632">
<ele>78</ele>
<time>2015-05-28T12:34:06Z</time>
</trkpt>
<trkpt lat="53.3478274" lon="18.4442230">
<ele>79</ele>
<time>2015-05-28T12:34:08Z</time>
</trkpt>
<trkpt lat="53.3478373" lon="18.4441846">
<ele>80</ele>
<time>2015-05-28T12:34:10Z</time>
</trkpt>
<trkpt lat="53.3478597" lon="18.4441523">
<ele>80</ele>
<time>2015-05-28T12:34:12Z</time>
</trkpt>
<trkpt lat="53.3478776" lon="18.4441142">
<ele>81</ele>
<time>2015-05-28T12:34:14Z</time>
</trkpt>
<trkpt lat="53.3478938" lon="18.4440752">
<ele>81</ele>
<time>2015-05-28T12:34:16Z</time>
</trkpt>
<trkpt lat="53.3479104" lon="18.4440353">
<ele>82</ele>
<time>2015-05-28T12:34:18Z</time>
</trkpt>
<trkpt lat="53.3479248" lon="18.4439923">
<ele>83</ele>
<time>2015-05-28T12:34:20Z</time>
</trkpt>
<trkpt lat="53.3479392" lon="18.4439504">
<ele>84</ele>
<time>2015-05-28T12:34:22Z</time>
</trkpt>
<trkpt lat="53.3479535" lon="18.4439071">
<ele>84</ele>
<time>2015-05-28T12:34:24Z</time>
</trkpt>
<trkpt lat="53.3479696" lon="18.4438671">
<ele>84</ele>
<time>2015-05-28T12:34:26Z</time>
</trkpt>
<trkpt lat="53.3479883" lon="18.4438250">
<ele>85</ele>
<time>2015-05-28T12:34:28Z</time>
</trkpt>
<trkpt lat="53.3480048" lon="18.4437782">
<ele>85</ele>
<time>2015-05-28T12:34:30Z</time>
</trkpt>
<trkpt lat="53.3480195" lon="18.4437311">
<ele>85</ele>
<time>2015-05-28T12:34:32Z</time>
</trkpt>
<trkpt lat="53.3480340" lon="18.4436889">
<ele>86</ele>
<time>2015-05-28T12:34:34Z</time>
</trkpt>
<trkpt lat="53.3480505" lon="18.4436490">
<ele>86</ele>
<time>2015-05-28T12:34:36Z</time>
</trkpt>
<trkpt lat="53.3480675" lon="18.4436141">
<ele>86</ele>
<time>2015-05-28T12:34:38Z</time>
</trkpt>
<trkpt lat="53.3480819" lon="18.4435723">
<ele>85</ele>
<time>2015-05-28T12:34:40Z</time>
</trkpt>
<trkpt lat="53.3480977" lon="18.4435331">
<ele>86</ele>
<time>2015-05-28T12:34:42Z</time>
</trkpt>
<trkpt lat="53.3481135" lon="18.4434963">
<ele>85</ele>
<time>2015-05-28T12:34:44Z</time>
</trkpt>
<trkpt lat="53.3481238" lon="18.4434504">
<ele>86</ele>
<time>2015-05-28T12:34:46Z</time>
</trkpt>
<trkpt lat="53.348134" lon="18.4434017">
<ele>88</ele>
<time>2015-05-28T12:34:48Z</time>
</trkpt>
<trkpt lat="53.3481436" lon="18.4433500">
<ele>87</ele>
<time>2015-05-28T12:34:50Z</time>
</trkpt>
<trkpt lat="53.3481514" lon="18.4432958">
<ele>85</ele>
<time>2015-05-28T12:34:52Z</time>
</trkpt>
<trkpt lat="53.3481543" lon="18.4432397">
<ele>86</ele>
<time>2015-05-28T12:34:54Z</time>
</trkpt>
<trkpt lat="53.3481479" lon="18.4431848">
<ele>86</ele>
<time>2015-05-28T12:34:56Z</time>
</trkpt>
<trkpt lat="53.3481442" lon="18.4431318">
<ele>86</ele>
<time>2015-05-28T12:34:58Z</time>
</trkpt>
<trkpt lat="53.3481392" lon="18.4430842">
<ele>86</ele>
<time>2015-05-28T12:35:00Z</time>
</trkpt>
<trkpt lat="53.3481359" lon="18.4430363">
<ele>86</ele>
<time>2015-05-28T12:35:02Z</time>
</trkpt>
<trkpt lat="53.3481358" lon="18.4429892">
<ele>85</ele>
<time>2015-05-28T12:35:04Z</time>
</trkpt>
<trkpt lat="53.3481284" lon="18.4429438">
<ele>86</ele>
<time>2015-05-28T12:35:06Z</time>
</trkpt>
<trkpt lat="53.3481214" lon="18.4428964">
<ele>88</ele>
<time>2015-05-28T12:35:08Z</time>
</trkpt>
<trkpt lat="53.3481168" lon="18.4428526">
<ele>86</ele>
<time>2015-05-28T12:35:10Z</time>
</trkpt>
<trkpt lat="53.3481127" lon="18.4428140">
<ele>87</ele>
<time>2015-05-28T12:35:12Z</time>
</trkpt>
<trkpt lat="53.3481182" lon="18.4427740">
<ele>90</ele>
<time>2015-05-28T12:35:14Z</time>
</trkpt>
<trkpt lat="53.3481148" lon="18.4427316">
<ele>88</ele>
<time>2015-05-28T12:35:16Z</time>
</trkpt>
<trkpt lat="53.3481098" lon="18.4426935">
<ele>88</ele>
<time>2015-05-28T12:35:18Z</time>
</trkpt>
<trkpt lat="53.3480992" lon="18.4426554">
<ele>89</ele>
<time>2015-05-28T12:35:20Z</time>
</trkpt>
<trkpt lat="53.3480857" lon="18.4426164">
<ele>90</ele>
<time>2015-05-28T12:35:22Z</time>
</trkpt>
<trkpt lat="53.3480832" lon="18.4425735">
<ele>91</ele>
<time>2015-05-28T12:35:24Z</time>
</trkpt>
<trkpt lat="53.3480902" lon="18.4425291">
<ele>93</ele>
<time>2015-05-28T12:35:26Z</time>
</trkpt>
<trkpt lat="53.3481016" lon="18.4424830">
<ele>93</ele>
<time>2015-05-28T12:35:28Z</time>
</trkpt>
<trkpt lat="53.3481136" lon="18.4424344">
<ele>93</ele>
<time>2015-05-28T12:35:30Z</time>
</trkpt>
<trkpt lat="53.3481252" lon="18.4423887">
<ele>94</ele>
<time>2015-05-28T12:35:32Z</time>
</trkpt>
<trkpt lat="53.3481374" lon="18.4423461">
<ele>94</ele>
<time>2015-05-28T12:35:34Z</time>
</trkpt>
<trkpt lat="53.3481446" lon="18.4423039">
<ele>95</ele>
<time>2015-05-28T12:35:36Z</time>
</trkpt>
<trkpt lat="53.3481548" lon="18.4422652">
<ele>95</ele>
<time>2015-05-28T12:35:38Z</time>
</trkpt>
<trkpt lat="53.3481677" lon="18.4422325">
<ele>93</ele>
<time>2015-05-28T12:35:40Z</time>
</trkpt>
<trkpt lat="53.3481822" lon="18.4421968">
<ele>93</ele>
<time>2015-05-28T12:35:42Z</time>
</trkpt>
<trkpt lat="53.3481999" lon="18.4421589">
<ele>94</ele>
<time>2015-05-28T12:35:44Z</time>
</trkpt>
<trkpt lat="53.3482187" lon="18.4421177">
<ele>89</ele>
<time>2015-05-28T12:35:46Z</time>
</trkpt>
<trkpt lat="53.3482300" lon="18.4420713">
<ele>91</ele>
<time>2015-05-28T12:35:48Z</time>
</trkpt>
<trkpt lat="53.3482381" lon="18.4420236">
<ele>92</ele>
<time>2015-05-28T12:35:50Z</time>
</trkpt>
<trkpt lat="53.3482472" lon="18.4419739">
<ele>91</ele>
<time>2015-05-28T12:35:52Z</time>
</trkpt>
<trkpt lat="53.3482565" lon="18.4419253">
<ele>90</ele>
<time>2015-05-28T12:35:54Z</time>
</trkpt>
<trkpt lat="53.3482681" lon="18.4418752">
<ele>89</ele>
<time>2015-05-28T12:35:56Z</time>
</trkpt>
<trkpt lat="53.3482772" lon="18.4418117">
<ele>90</ele>
<time>2015-05-28T12:35:58Z</time>
</trkpt>
<trkpt lat="53.3482919" lon="18.4417531">
<ele>91</ele>
<time>2015-05-28T12:36:00Z</time>
</trkpt>
<trkpt lat="53.3483090" lon="18.4417093">
<ele>92</ele>
<time>2015-05-28T12:36:02Z</time>
</trkpt>
<trkpt lat="53.3483278" lon="18.4416673">
<ele>94</ele>
<time>2015-05-28T12:36:04Z</time>
</trkpt>
<trkpt lat="53.3483465" lon="18.4416259">
<ele>92</ele>
<time>2015-05-28T12:36:06Z</time>
</trkpt>
<trkpt lat="53.3483610" lon="18.4415756">
<ele>91</ele>
<time>2015-05-28T12:36:08Z</time>
</trkpt>
<trkpt lat="53.3483793" lon="18.4415270">
<ele>90</ele>
<time>2015-05-28T12:36:10Z</time>
</trkpt>
<trkpt lat="53.3483996" lon="18.4414790">
<ele>90</ele>
<time>2015-05-28T12:36:12Z</time>
</trkpt>
<trkpt lat="53.3484151" lon="18.4414295">
<ele>92</ele>
<time>2015-05-28T12:36:14Z</time>
</trkpt>
<trkpt lat="53.3484315" lon="18.4413828">
<ele>96</ele>
<time>2015-05-28T12:36:16Z</time>
</trkpt>
<trkpt lat="53.3484465" lon="18.4413406">
<ele>94</ele>
<time>2015-05-28T12:36:18Z</time>
</trkpt>
<trkpt lat="53.3484570" lon="18.4412963">
<ele>94</ele>
<time>2015-05-28T12:36:20Z</time>
</trkpt>
<trkpt lat="53.3484704" lon="18.4412536">
<ele>92</ele>
<time>2015-05-28T12:36:22Z</time>
</trkpt>
<trkpt lat="53.3484815" lon="18.4412113">
<ele>91</ele>
<time>2015-05-28T12:36:24Z</time>
</trkpt>
<trkpt lat="53.3484881" lon="18.4411654">
<ele>90</ele>
<time>2015-05-28T12:36:26Z</time>
</trkpt>
<trkpt lat="53.3484900" lon="18.4411200">
<ele>89</ele>
<time>2015-05-28T12:36:28Z</time>
</trkpt>
<trkpt lat="53.3484954" lon="18.4410774">
<ele>90</ele>
<time>2015-05-28T12:36:30Z</time>
</trkpt>
<trkpt lat="53.3484989" lon="18.4410326">
<ele>90</ele>
<time>2015-05-28T12:36:32Z</time>
</trkpt>
<trkpt lat="53.3485061" lon="18.4409800">
<ele>92</ele>
<time>2015-05-28T12:36:34Z</time>
</trkpt>
<trkpt lat="53.3485183" lon="18.4409281">
<ele>93</ele>
<time>2015-05-28T12:36:36Z</time>
</trkpt>
<trkpt lat="53.3485340" lon="18.4408780">
<ele>92</ele>
<time>2015-05-28T12:36:38Z</time>
</trkpt>
<trkpt lat="53.3485506" lon="18.4408262">
<ele>92</ele>
<time>2015-05-28T12:36:40Z</time>
</trkpt>
<trkpt lat="53.3485655" lon="18.4407745">
<ele>92</ele>
<time>2015-05-28T12:36:42Z</time>
</trkpt>
<trkpt lat="53.3485792" lon="18.4407251">
<ele>92</ele>
<time>2015-05-28T12:36:44Z</time>
</trkpt>
<trkpt lat="53.3485933" lon="18.4406830">
<ele>90</ele>
<time>2015-05-28T12:36:46Z</time>
</trkpt>
<trkpt lat="53.3486069" lon="18.4406413">
<ele>90</ele>
<time>2015-05-28T12:36:48Z</time>
</trkpt>
<trkpt lat="53.3486163" lon="18.4406024">
<ele>90</ele>
<time>2015-05-28T12:36:50Z</time>
</trkpt>
<trkpt lat="53.3486246" lon="18.4405630">
<ele>89</ele>
<time>2015-05-28T12:36:52Z</time>
</trkpt>
<trkpt lat="53.3486330" lon="18.4405209">
<ele>91</ele>
<time>2015-05-28T12:36:54Z</time>
</trkpt>
<trkpt lat="53.3486453" lon="18.4404823">
<ele>91</ele>
<time>2015-05-28T12:36:56Z</time>
</trkpt>
<trkpt lat="53.3486628" lon="18.4404502">
<ele>92</ele>
<time>2015-05-28T12:36:58Z</time>
</trkpt>
<trkpt lat="53.3486783" lon="18.4404132">
<ele>92</ele>
<time>2015-05-28T12:37:00Z</time>
</trkpt>
<trkpt lat="53.3486976" lon="18.4403754">
<ele>92</ele>
<time>2015-05-28T12:37:02Z</time>
</trkpt>
<trkpt lat="53.3487146" lon="18.4403303">
<ele>94</ele>
<time>2015-05-28T12:37:04Z</time>
</trkpt>
<trkpt lat="53.3487311" lon="18.4402872">
<ele>94</ele>
<time>2015-05-28T12:37:06Z</time>
</trkpt>
<trkpt lat="53.3487434" lon="18.4402490">
<ele>94</ele>
<time>2015-05-28T12:37:08Z</time>
</trkpt>
<trkpt lat="53.3487518" lon="18.4402062">
<ele>93</ele>
<time>2015-05-28T12:37:10Z</time>
</trkpt>
<trkpt lat="53.3487629" lon="18.4401603">
<ele>93</ele>
<time>2015-05-28T12:37:12Z</time>
</trkpt>
<trkpt lat="53.3487792" lon="18.4401218">
<ele>93</ele>
<time>2015-05-28T12:37:14Z</time>
</trkpt>
<trkpt lat="53.3487953" lon="18.4400798">
<ele>92</ele>
<time>2015-05-28T12:37:16Z</time>
</trkpt>
<trkpt lat="53.3488054" lon="18.4400333">
<ele>93</ele>
<time>2015-05-28T12:37:18Z</time>
</trkpt>
<trkpt lat="53.3488219" lon="18.4399941">
<ele>90</ele>
<time>2015-05-28T12:37:20Z</time>
</trkpt>
<trkpt lat="53.3488423" lon="18.4399567">
<ele>90</ele>
<time>2015-05-28T12:37:22Z</time>
</trkpt>
<trkpt lat="53.3488614" lon="18.4399115">
<ele>90</ele>
<time>2015-05-28T12:37:24Z</time>
</trkpt>
<trkpt lat="53.3488778" lon="18.4398667">
<ele>90</ele>
<time>2015-05-28T12:37:26Z</time>
</trkpt>
<trkpt lat="53.3488905" lon="18.4398126">
<ele>91</ele>
<time>2015-05-28T12:37:28Z</time>
</trkpt>
<trkpt lat="53.3488984" lon="18.4397560">
<ele>92</ele>
<time>2015-05-28T12:37:30Z</time>
</trkpt>
<trkpt lat="53.3489102" lon="18.4397039">
<ele>92</ele>
<time>2015-05-28T12:37:32Z</time>
</trkpt>
<trkpt lat="53.3489198" lon="18.4396532">
<ele>92</ele>
<time>2015-05-28T12:37:34Z</time>
</trkpt>
<trkpt lat="53.3489243" lon="18.4396049">
<ele>92</ele>
<time>2015-05-28T12:37:36Z</time>
</trkpt>
<trkpt lat="53.3489185" lon="18.4395572">
<ele>91</ele>
<time>2015-05-28T12:37:38Z</time>
</trkpt>
<trkpt lat="53.3489019" lon="18.4395158">
<ele>91</ele>
<time>2015-05-28T12:37:40Z</time>
</trkpt>
<trkpt lat="53.3488763" lon="18.4394828">
<ele>91</ele>
<time>2015-05-28T12:37:42Z</time>
</trkpt>
<trkpt lat="53.3488508" lon="18.4394483">
<ele>91</ele>
<time>2015-05-28T12:37:44Z</time>
</trkpt>
<trkpt lat="53.3488351" lon="18.4394041">
<ele>90</ele>
<time>2015-05-28T12:37:46Z</time>
</trkpt>
<trkpt lat="53.3488327" lon="18.4393536">
<ele>89</ele>
<time>2015-05-28T12:37:48Z</time>
</trkpt>
<trkpt lat="53.3488353" lon="18.4393020">
<ele>89</ele>
<time>2015-05-28T12:37:50Z</time>
</trkpt>
<trkpt lat="53.3488371" lon="18.4392515">
<ele>90</ele>
<time>2015-05-28T12:37:52Z</time>
</trkpt>
<trkpt lat="53.3488389" lon="18.4392009">
<ele>90</ele>
<time>2015-05-28T12:37:54Z</time>
</trkpt>
<trkpt lat="53.3488471" lon="18.4391526">
<ele>90</ele>
<time>2015-05-28T12:37:56Z</time>
</trkpt>
<trkpt lat="53.3488573" lon="18.4391039">
<ele>90</ele>
<time>2015-05-28T12:37:58Z</time>
</trkpt>
<trkpt lat="53.3488697" lon="18.4390557">
<ele>90</ele>
<time>2015-05-28T12:38:00Z</time>
</trkpt>
<trkpt lat="53.3488846" lon="18.4390180">
<ele>89</ele>
<time>2015-05-28T12:38:02Z</time>
</trkpt>
<trkpt lat="53.3488997" lon="18.4389847">
<ele>89</ele>
<time>2015-05-28T12:38:04Z</time>
</trkpt>
<trkpt lat="53.3489122" lon="18.4389478">
<ele>89</ele>
<time>2015-05-28T12:38:06Z</time>
</trkpt>
<trkpt lat="53.3489226" lon="18.4389044">
<ele>90</ele>
<time>2015-05-28T12:38:08Z</time>
</trkpt>
<trkpt lat="53.348931" lon="18.4388573">
<ele>91</ele>
<time>2015-05-28T12:38:10Z</time>
</trkpt>
<trkpt lat="53.3489407" lon="18.4388052">
<ele>91</ele>
<time>2015-05-28T12:38:12Z</time>
</trkpt>
<trkpt lat="53.3489540" lon="18.4387563">
<ele>92</ele>
<time>2015-05-28T12:38:14Z</time>
</trkpt>
<trkpt lat="53.3489727" lon="18.4387128">
<ele>92</ele>
<time>2015-05-28T12:38:16Z</time>
</trkpt>
<trkpt lat="53.3489931" lon="18.4386623">
<ele>93</ele>
<time>2015-05-28T12:38:18Z</time>
</trkpt>
<trkpt lat="53.3490070" lon="18.4386155">
<ele>93</ele>
<time>2015-05-28T12:38:20Z</time>
</trkpt>
<trkpt lat="53.3490209" lon="18.4385661">
<ele>94</ele>
<time>2015-05-28T12:38:22Z</time>
</trkpt>
<trkpt lat="53.3490325" lon="18.4385177">
<ele>93</ele>
<time>2015-05-28T12:38:24Z</time>
</trkpt>
<trkpt lat="53.3490444" lon="18.4384711">
<ele>93</ele>
<time>2015-05-28T12:38:26Z</time>
</trkpt>
<trkpt lat="53.3490569" lon="18.4384255">
<ele>93</ele>
<time>2015-05-28T12:38:28Z</time>
</trkpt>
<trkpt lat="53.3490683" lon="18.4383774">
<ele>92</ele>
<time>2015-05-28T12:38:30Z</time>
</trkpt>
<trkpt lat="53.3490729" lon="18.4383332">
<ele>90</ele>
<time>2015-05-28T12:38:32Z</time>
</trkpt>
<trkpt lat="53.3490795" lon="18.4382852">
<ele>90</ele>
<time>2015-05-28T12:38:34Z</time>
</trkpt>
<trkpt lat="53.3490895" lon="18.4382390">
<ele>90</ele>
<time>2015-05-28T12:38:36Z</time>
</trkpt>
<trkpt lat="53.3491013" lon="18.4381892">
<ele>91</ele>
<time>2015-05-28T12:38:38Z</time>
</trkpt>
<trkpt lat="53.3491111" lon="18.4381583">
<ele>91</ele>
<time>2015-05-28T12:38:40Z</time>
</trkpt>
<trkpt lat="53.3491163" lon="18.4381423">
<ele>91</ele>
<time>2015-05-28T12:38:42Z</time>
</trkpt>
<trkpt lat="53.3491266" lon="18.4381093">
<ele>91</ele>
<time>2015-05-28T12:38:44Z</time>
</trkpt>
<trkpt lat="53.3491416" lon="18.4380673">
<ele>90</ele>
<time>2015-05-28T12:38:46Z</time>
</trkpt>
<trkpt lat="53.3491559" lon="18.4380323">
<ele>90</ele>
<time>2015-05-28T12:38:48Z</time>
</trkpt>
<trkpt lat="53.3491675" lon="18.4379886">
<ele>91</ele>
<time>2015-05-28T12:38:50Z</time>
</trkpt>
<trkpt lat="53.3491792" lon="18.4379393">
<ele>93</ele>
<time>2015-05-28T12:38:52Z</time>
</trkpt>
<trkpt lat="53.3491892" lon="18.437894">
<ele>93</ele>
<time>2015-05-28T12:38:54Z</time>
</trkpt>
<trkpt lat="53.3492027" lon="18.4378539">
<ele>94</ele>
<time>2015-05-28T12:38:56Z</time>
</trkpt>
<trkpt lat="53.3492223" lon="18.4378235">
<ele>94</ele>
<time>2015-05-28T12:38:58Z</time>
</trkpt>
<trkpt lat="53.3492335" lon="18.4377814">
<ele>93</ele>
<time>2015-05-28T12:39:00Z</time>
</trkpt>
<trkpt lat="53.3492426" lon="18.4377341">
<ele>92</ele>
<time>2015-05-28T12:39:02Z</time>
</trkpt>
<trkpt lat="53.3492517" lon="18.4376854">
<ele>92</ele>
<time>2015-05-28T12:39:04Z</time>
</trkpt>
<trkpt lat="53.3492647" lon="18.4376408">
<ele>90</ele>
<time>2015-05-28T12:39:06Z</time>
</trkpt>
<trkpt lat="53.3492813" lon="18.4375990">
<ele>90</ele>
<time>2015-05-28T12:39:08Z</time>
</trkpt>
<trkpt lat="53.3492974" lon="18.4375553">
<ele>89</ele>
<time>2015-05-28T12:39:10Z</time>
</trkpt>
<trkpt lat="53.3493122" lon="18.4375002">
<ele>90</ele>
<time>2015-05-28T12:39:12Z</time>
</trkpt>
<trkpt lat="53.3493275" lon="18.4374450">
<ele>89</ele>
<time>2015-05-28T12:39:14Z</time>
</trkpt>
<trkpt lat="53.3493457" lon="18.4373990">
<ele>88</ele>
<time>2015-05-28T12:39:16Z</time>
</trkpt>
<trkpt lat="53.3493616" lon="18.4373508">
<ele>89</ele>
<time>2015-05-28T12:39:18Z</time>
</trkpt>
<trkpt lat="53.3493779" lon="18.4373001">
<ele>89</ele>
<time>2015-05-28T12:39:20Z</time>
</trkpt>
<trkpt lat="53.3493959" lon="18.4372550">
<ele>89</ele>
<time>2015-05-28T12:39:22Z</time>
</trkpt>
<trkpt lat="53.3494127" lon="18.4372168">
<ele>89</ele>
<time>2015-05-28T12:39:24Z</time>
</trkpt>
<trkpt lat="53.3494310" lon="18.4371848">
<ele>89</ele>
<time>2015-05-28T12:39:26Z</time>
</trkpt>
<trkpt lat="53.3494492" lon="18.4371488">
<ele>89</ele>
<time>2015-05-28T12:39:28Z</time>
</trkpt>
<trkpt lat="53.3494676" lon="18.4371110">
<ele>90</ele>
<time>2015-05-28T12:39:30Z</time>
</trkpt>
<trkpt lat="53.3494796" lon="18.4370733">
<ele>90</ele>
<time>2015-05-28T12:39:32Z</time>
</trkpt>
<trkpt lat="53.3494899" lon="18.4370292">
<ele>92</ele>
<time>2015-05-28T12:39:34Z</time>
</trkpt>
<trkpt lat="53.3494978" lon="18.4369806">
<ele>91</ele>
<time>2015-05-28T12:39:36Z</time>
</trkpt>
<trkpt lat="53.3495050" lon="18.4369287">
<ele>92</ele>
<time>2015-05-28T12:39:38Z</time>
</trkpt>
<trkpt lat="53.3495131" lon="18.4368779">
<ele>93</ele>
<time>2015-05-28T12:39:40Z</time>
</trkpt>
<trkpt lat="53.3495171" lon="18.4368258">
<ele>92</ele>
<time>2015-05-28T12:39:42Z</time>
</trkpt>
<trkpt lat="53.3495204" lon="18.4367792">
<ele>91</ele>
<time>2015-05-28T12:39:44Z</time>
</trkpt>
<trkpt lat="53.3495272" lon="18.4367370">
<ele>92</ele>
<time>2015-05-28T12:39:46Z</time>
</trkpt>
<trkpt lat="53.3495371" lon="18.4366994">
<ele>92</ele>
<time>2015-05-28T12:39:48Z</time>
</trkpt>
<trkpt lat="53.3495500" lon="18.4366598">
<ele>92</ele>
<time>2015-05-28T12:39:50Z</time>
</trkpt>
<trkpt lat="53.3495584" lon="18.4366097">
<ele>93</ele>
<time>2015-05-28T12:39:52Z</time>
</trkpt>
<trkpt lat="53.3495643" lon="18.4365526">
<ele>94</ele>
<time>2015-05-28T12:39:54Z</time>
</trkpt>
<trkpt lat="53.3495718" lon="18.4364989">
<ele>95</ele>
<time>2015-05-28T12:39:56Z</time>
</trkpt>
<trkpt lat="53.3495792" lon="18.4364472">
<ele>96</ele>
<time>2015-05-28T12:39:58Z</time>
</trkpt>
<trkpt lat="53.3495866" lon="18.4363983">
<ele>96</ele>
<time>2015-05-28T12:40:00Z</time>
</trkpt>
<trkpt lat="53.3495974" lon="18.4363569">
<ele>96</ele>
<time>2015-05-28T12:40:02Z</time>
</trkpt>
<trkpt lat="53.3496077" lon="18.4363028">
<ele>98</ele>
<time>2015-05-28T12:40:04Z</time>
</trkpt>
<trkpt lat="53.3496212" lon="18.4362564">
<ele>99</ele>
<time>2015-05-28T12:40:06Z</time>
</trkpt>
<trkpt lat="53.3496342" lon="18.4362150">
<ele>99</ele>
<time>2015-05-28T12:40:08Z</time>
</trkpt>
<trkpt lat="53.3496440" lon="18.4361674">
<ele>99</ele>
<time>2015-05-28T12:40:10Z</time>
</trkpt>
<trkpt lat="53.3496498" lon="18.4361178">
<ele>100</ele>
<time>2015-05-28T12:40:12Z</time>
</trkpt>
<trkpt lat="53.3496533" lon="18.4360692">
<ele>100</ele>
<time>2015-05-28T12:40:14Z</time>
</trkpt>
<trkpt lat="53.3496624" lon="18.4360259">
<ele>100</ele>
<time>2015-05-28T12:40:16Z</time>
</trkpt>
<trkpt lat="53.3496753" lon="18.4359861">
<ele>100</ele>
<time>2015-05-28T12:40:18Z</time>
</trkpt>
<trkpt lat="53.349684" lon="18.4359231">
<ele>102</ele>
<time>2015-05-28T12:40:20Z</time>
</trkpt>
<trkpt lat="53.3496932" lon="18.4358643">
<ele>101</ele>
<time>2015-05-28T12:40:22Z</time>
</trkpt>
<trkpt lat="53.3497065" lon="18.4358139">
<ele>102</ele>
<time>2015-05-28T12:40:24Z</time>
</trkpt>
<trkpt lat="53.3497225" lon="18.4357712">
<ele>102</ele>
<time>2015-05-28T12:40:26Z</time>
</trkpt>
<trkpt lat="53.3497376" lon="18.4357305">
<ele>102</ele>
<time>2015-05-28T12:40:28Z</time>
</trkpt>
<trkpt lat="53.3497583" lon="18.4357054">
<ele>101</ele>
<time>2015-05-28T12:40:30Z</time>
</trkpt>
<trkpt lat="53.3497796" lon="18.4356787">
<ele>99</ele>
<time>2015-05-28T12:40:32Z</time>
</trkpt>
<trkpt lat="53.3497982" lon="18.4356498">
<ele>98</ele>
<time>2015-05-28T12:40:34Z</time>
</trkpt>
<trkpt lat="53.3498071" lon="18.4356027">
<ele>99</ele>
<time>2015-05-28T12:40:36Z</time>
</trkpt>
<trkpt lat="53.3498116" lon="18.4355595">
<ele>99</ele>
<time>2015-05-28T12:40:38Z</time>
</trkpt>
<trkpt lat="53.3498194" lon="18.4355263">
<ele>99</ele>
<time>2015-05-28T12:40:40Z</time>
</trkpt>
<trkpt lat="53.3498185" lon="18.4354761">
<ele>99</ele>
<time>2015-05-28T12:40:42Z</time>
</trkpt>
<trkpt lat="53.3498187" lon="18.4354319">
<ele>99</ele>
<time>2015-05-28T12:40:44Z</time>
</trkpt>
<trkpt lat="53.3498265" lon="18.4353939">
<ele>99</ele>
<time>2015-05-28T12:40:46Z</time>
</trkpt>
<trkpt lat="53.3498362" lon="18.4353565">
<ele>99</ele>
<time>2015-05-28T12:40:48Z</time>
</trkpt>
<trkpt lat="53.349847" lon="18.4353171">
<ele>99</ele>
<time>2015-05-28T12:40:50Z</time>
</trkpt>
<trkpt lat="53.3498577" lon="18.4352753">
<ele>91</ele>
<time>2015-05-28T12:40:52Z</time>
</trkpt>
<trkpt lat="53.3498690" lon="18.4352283">
<ele>94</ele>
<time>2015-05-28T12:40:54Z</time>
</trkpt>
<trkpt lat="53.3498816" lon="18.4351844">
<ele>96</ele>
<time>2015-05-28T12:40:56Z</time>
</trkpt>
<trkpt lat="53.3498925" lon="18.4351315">
<ele>98</ele>
<time>2015-05-28T12:40:58Z</time>
</trkpt>
<trkpt lat="53.3498998" lon="18.4350704">
<ele>99</ele>
<time>2015-05-28T12:41:00Z</time>
</trkpt>
<trkpt lat="53.349909" lon="18.4350115">
<ele>99</ele>
<time>2015-05-28T12:41:02Z</time>
</trkpt>
<trkpt lat="53.3499178" lon="18.4349530">
<ele>100</ele>
<time>2015-05-28T12:41:04Z</time>
</trkpt>
<trkpt lat="53.3499288" lon="18.4348965">
<ele>100</ele>
<time>2015-05-28T12:41:06Z</time>
</trkpt>
<trkpt lat="53.3499427" lon="18.4348465">
<ele>100</ele>
<time>2015-05-28T12:41:08Z</time>
</trkpt>
<trkpt lat="53.3499574" lon="18.4348048">
<ele>99</ele>
<time>2015-05-28T12:41:10Z</time>
</trkpt>
<trkpt lat="53.3499696" lon="18.4347618">
<ele>99</ele>
<time>2015-05-28T12:41:12Z</time>
</trkpt>
<trkpt lat="53.3499806" lon="18.4347192">
<ele>98</ele>
<time>2015-05-28T12:41:14Z</time>
</trkpt>
<trkpt lat="53.3499895" lon="18.4346714">
<ele>99</ele>
<time>2015-05-28T12:41:16Z</time>
</trkpt>
<trkpt lat="53.3500019" lon="18.4346256">
<ele>99</ele>
<time>2015-05-28T12:41:18Z</time>
</trkpt>
<trkpt lat="53.3500170" lon="18.4345833">
<ele>99</ele>
<time>2015-05-28T12:41:20Z</time>
</trkpt>
<trkpt lat="53.3500329" lon="18.4345430">
<ele>98</ele>
<time>2015-05-28T12:41:22Z</time>
</trkpt>
<trkpt lat="53.3500471" lon="18.4344979">
<ele>99</ele>
<time>2015-05-28T12:41:24Z</time>
</trkpt>
<trkpt lat="53.3500502" lon="18.4344380">
<ele>100</ele>
<time>2015-05-28T12:41:26Z</time>
</trkpt>
<trkpt lat="53.3500648" lon="18.4343865">
<ele>100</ele>
<time>2015-05-28T12:41:28Z</time>
</trkpt>
<trkpt lat="53.3500833" lon="18.4343417">
<ele>100</ele>
<time>2015-05-28T12:41:30Z</time>
</trkpt>
<trkpt lat="53.3500997" lon="18.4343037">
<ele>100</ele>
<time>2015-05-28T12:41:32Z</time>
</trkpt>
<trkpt lat="53.3501124" lon="18.4342643">
<ele>100</ele>
<time>2015-05-28T12:41:34Z</time>
</trkpt>
<trkpt lat="53.3501178" lon="18.4342339">
<ele>100</ele>
<time>2015-05-28T12:41:36Z</time>
</trkpt>
<trkpt lat="53.3501216" lon="18.4342017">
<ele>100</ele>
<time>2015-05-28T12:41:38Z</time>
</trkpt>
<trkpt lat="53.3501220" lon="18.4341697">
<ele>98</ele>
<time>2015-05-28T12:41:40Z</time>
</trkpt>
<trkpt lat="53.3501174" lon="18.4341340">
<ele>98</ele>
<time>2015-05-28T12:41:42Z</time>
</trkpt>
<trkpt lat="53.3501300" lon="18.4341039">
<ele>100</ele>
<time>2015-05-28T12:41:44Z</time>
</trkpt>
<trkpt lat="53.3501481" lon="18.4340814">
<ele>101</ele>
<time>2015-05-28T12:41:46Z</time>
</trkpt>
<trkpt lat="53.3501601" lon="18.4340356">
<ele>102</ele>
<time>2015-05-28T12:41:48Z</time>
</trkpt>
<trkpt lat="53.3501747" lon="18.4340033">
<ele>101</ele>
<time>2015-05-28T12:41:50Z</time>
</trkpt>
<trkpt lat="53.3501882" lon="18.4339721">
<ele>100</ele>
<time>2015-05-28T12:41:52Z</time>
</trkpt>
<trkpt lat="53.3501975" lon="18.4339275">
<ele>101</ele>
<time>2015-05-28T12:41:54Z</time>
</trkpt>
<trkpt lat="53.3502072" lon="18.4338831">
<ele>102</ele>
<time>2015-05-28T12:41:56Z</time>
</trkpt>
<trkpt lat="53.3502148" lon="18.4338382">
<ele>100</ele>
<time>2015-05-28T12:41:58Z</time>
</trkpt>
<trkpt lat="53.3502235" lon="18.4337769">
<ele>102</ele>
<time>2015-05-28T12:42:00Z</time>
</trkpt>
<trkpt lat="53.3502372" lon="18.4337257">
<ele>101</ele>
<time>2015-05-28T12:42:02Z</time>
</trkpt>
<trkpt lat="53.3502522" lon="18.4336872">
<ele>101</ele>
<time>2015-05-28T12:42:04Z</time>
</trkpt>
<trkpt lat="53.3502688" lon="18.4336378">
<ele>102</ele>
<time>2015-05-28T12:42:06Z</time>
</trkpt>
<trkpt lat="53.3502822" lon="18.4335806">
<ele>102</ele>
<time>2015-05-28T12:42:08Z</time>
</trkpt>
<trkpt lat="53.3502981" lon="18.4335300">
<ele>102</ele>
<time>2015-05-28T12:42:10Z</time>
</trkpt>
<trkpt lat="53.3503097" lon="18.4334790">
<ele>102</ele>
<time>2015-05-28T12:42:12Z</time>
</trkpt>
<trkpt lat="53.3503270" lon="18.4334347">
<ele>101</ele>
<time>2015-05-28T12:42:14Z</time>
</trkpt>
<trkpt lat="53.3503461" lon="18.4333874">
<ele>102</ele>
<time>2015-05-28T12:42:16Z</time>
</trkpt>
<trkpt lat="53.3503632" lon="18.4333396">
<ele>102</ele>
<time>2015-05-28T12:42:18Z</time>
</trkpt>
<trkpt lat="53.3503788" lon="18.4332802">
<ele>104</ele>
<time>2015-05-28T12:42:20Z</time>
</trkpt>
<trkpt lat="53.3503933" lon="18.4332255">
<ele>104</ele>
<time>2015-05-28T12:42:22Z</time>
</trkpt>
<trkpt lat="53.3504084" lon="18.4331749">
<ele>103</ele>
<time>2015-05-28T12:42:24Z</time>
</trkpt>
<trkpt lat="53.3504179" lon="18.4331278">
<ele>102</ele>
<time>2015-05-28T12:42:26Z</time>
</trkpt>
<trkpt lat="53.3504333" lon="18.4330894">
<ele>102</ele>
<time>2015-05-28T12:42:28Z</time>
</trkpt>
<trkpt lat="53.350447" lon="18.4330587">
<ele>101</ele>
<time>2015-05-28T12:42:30Z</time>
</trkpt>
<trkpt lat="53.3504608" lon="18.4330293">
<ele>100</ele>
<time>2015-05-28T12:42:32Z</time>
</trkpt>
<trkpt lat="53.3504618" lon="18.4329964">
<ele>100</ele>
<time>2015-05-28T12:42:34Z</time>
</trkpt>
<trkpt lat="53.3504417" lon="18.4329679">
<ele>100</ele>
<time>2015-05-28T12:42:36Z</time>
</trkpt>
<trkpt lat="53.3504193" lon="18.4329341">
<ele>100</ele>
<time>2015-05-28T12:42:38Z</time>
</trkpt>
<trkpt lat="53.3504143" lon="18.4328834">
<ele>100</ele>
<time>2015-05-28T12:42:40Z</time>
</trkpt>
<trkpt lat="53.3504190" lon="18.4328309">
<ele>102</ele>
<time>2015-05-28T12:42:42Z</time>
</trkpt>
<trkpt lat="53.3504305" lon="18.4327712">
<ele>101</ele>
<time>2015-05-28T12:42:44Z</time>
</trkpt>
<trkpt lat="53.3504526" lon="18.4327174">
<ele>103</ele>
<time>2015-05-28T12:42:46Z</time>
</trkpt>
<trkpt lat="53.350472" lon="18.4326579">
<ele>105</ele>
<time>2015-05-28T12:42:48Z</time>
</trkpt>
<trkpt lat="53.3504820" lon="18.4326007">
<ele>106</ele>
<time>2015-05-28T12:42:50Z</time>
</trkpt>
<trkpt lat="53.3504887" lon="18.4325390">
<ele>107</ele>
<time>2015-05-28T12:42:52Z</time>
</trkpt>
<trkpt lat="53.3504973" lon="18.4324806">
<ele>108</ele>
<time>2015-05-28T12:42:54Z</time>
</trkpt>
<trkpt lat="53.3505136" lon="18.4324357">
<ele>108</ele>
<time>2015-05-28T12:42:56Z</time>
</trkpt>
<trkpt lat="53.3505216" lon="18.4323774">
<ele>109</ele>
<time>2015-05-28T12:42:58Z</time>
</trkpt>
<trkpt lat="53.3505274" lon="18.4323298">
<ele>108</ele>
<time>2015-05-28T12:43:00Z</time>
</trkpt>
<trkpt lat="53.3505303" lon="18.4322854">
<ele>108</ele>
<time>2015-05-28T12:43:02Z</time>
</trkpt>
<trkpt lat="53.3505315" lon="18.4322314">
<ele>109</ele>
<time>2015-05-28T12:43:04Z</time>
</trkpt>
<trkpt lat="53.3505315" lon="18.4321760">
<ele>110</ele>
<time>2015-05-28T12:43:06Z</time>
</trkpt>
<trkpt lat="53.3505316" lon="18.4321326">
<ele>108</ele>
<time>2015-05-28T12:43:08Z</time>
</trkpt>
<trkpt lat="53.3505271" lon="18.4320904">
<ele>107</ele>
<time>2015-05-28T12:43:10Z</time>
</trkpt>
<trkpt lat="53.3505189" lon="18.4320418">
<ele>106</ele>
<time>2015-05-28T12:43:12Z</time>
</trkpt>
<trkpt lat="53.3505131" lon="18.4319933">
<ele>106</ele>
<time>2015-05-28T12:43:14Z</time>
</trkpt>
<trkpt lat="53.3505253" lon="18.4318897">
<ele>110</ele>
<time>2015-05-28T12:43:18Z</time>
</trkpt>
<trkpt lat="53.3505309" lon="18.4318381">
<ele>110</ele>
<time>2015-05-28T12:43:20Z</time>
</trkpt>
<trkpt lat="53.3505380" lon="18.4317858">
<ele>109</ele>
<time>2015-05-28T12:43:22Z</time>
</trkpt>
<trkpt lat="53.3505357" lon="18.4317353">
<ele>109</ele>
<time>2015-05-28T12:43:24Z</time>
</trkpt>
<trkpt lat="53.3505293" lon="18.4316975">
<ele>108</ele>
<time>2015-05-28T12:43:26Z</time>
</trkpt>
<trkpt lat="53.3505437" lon="18.4316572">
<ele>109</ele>
<time>2015-05-28T12:43:28Z</time>
</trkpt>
<trkpt lat="53.3505640" lon="18.4316200">
<ele>110</ele>
<time>2015-05-28T12:43:30Z</time>
</trkpt>
<trkpt lat="53.3505834" lon="18.4315799">
<ele>110</ele>
<time>2015-05-28T12:43:32Z</time>
</trkpt>
<trkpt lat="53.3506039" lon="18.4315364">
<ele>110</ele>
<time>2015-05-28T12:43:34Z</time>
</trkpt>
<trkpt lat="53.3506183" lon="18.4314888">
<ele>110</ele>
<time>2015-05-28T12:43:36Z</time>
</trkpt>
<trkpt lat="53.3506167" lon="18.43144">
<ele>110</ele>
<time>2015-05-28T12:43:38Z</time>
</trkpt>
<trkpt lat="53.3506115" lon="18.431391">
<ele>110</ele>
<time>2015-05-28T12:43:40Z</time>
</trkpt>
<trkpt lat="53.3506044" lon="18.4313375">
<ele>110</ele>
<time>2015-05-28T12:43:42Z</time>
</trkpt>
<trkpt lat="53.3506078" lon="18.4312885">
<ele>112</ele>
<time>2015-05-28T12:43:44Z</time>
</trkpt>
<trkpt lat="53.3506107" lon="18.4312324">
<ele>114</ele>
<time>2015-05-28T12:43:46Z</time>
</trkpt>
<trkpt lat="53.3506320" lon="18.4311862">
<ele>115</ele>
<time>2015-05-28T12:43:48Z</time>
</trkpt>
<trkpt lat="53.3506686" lon="18.4311518">
<ele>115</ele>
<time>2015-05-28T12:43:50Z</time>
</trkpt>
<trkpt lat="53.3506915" lon="18.4311168">
<ele>116</ele>
<time>2015-05-28T12:43:52Z</time>
</trkpt>
<trkpt lat="53.3507167" lon="18.4310784">
<ele>118</ele>
<time>2015-05-28T12:43:54Z</time>
</trkpt>
<trkpt lat="53.35075" lon="18.4310441">
<ele>121</ele>
<time>2015-05-28T12:43:56Z</time>
</trkpt>
<trkpt lat="53.3507651" lon="18.4310080">
<ele>116</ele>
<time>2015-05-28T12:43:58Z</time>
</trkpt>
<trkpt lat="53.3507538" lon="18.4309748">
<ele>114</ele>
<time>2015-05-28T12:44:00Z</time>
</trkpt>
<trkpt lat="53.3507423" lon="18.4309374">
<ele>114</ele>
<time>2015-05-28T12:44:02Z</time>
</trkpt>
<trkpt lat="53.3507172" lon="18.4308970">
<ele>109</ele>
<time>2015-05-28T12:44:04Z</time>
</trkpt>
<trkpt lat="53.3506981" lon="18.4308541">
<ele>109</ele>
<time>2015-05-28T12:44:06Z</time>
</trkpt>
<trkpt lat="53.3506815" lon="18.4308151">
<ele>109</ele>
<time>2015-05-28T12:44:08Z</time>
</trkpt>
<trkpt lat="53.3506709" lon="18.4307671">
<ele>110</ele>
<time>2015-05-28T12:44:10Z</time>
</trkpt>
<trkpt lat="53.3506585" lon="18.4307199">
<ele>111</ele>
<time>2015-05-28T12:44:12Z</time>
</trkpt>
<trkpt lat="53.3506437" lon="18.4306842">
<ele>108</ele>
<time>2015-05-28T12:44:14Z</time>
</trkpt>
<trkpt lat="53.3506213" lon="18.4306400">
<ele>109</ele>
<time>2015-05-28T12:44:16Z</time>
</trkpt>
<trkpt lat="53.3506419" lon="18.4305839">
<ele>103</ele>
<time>2015-05-28T12:44:18Z</time>
</trkpt>
<trkpt lat="53.3506589" lon="18.4305276">
<ele>107</ele>
<time>2015-05-28T12:44:20Z</time>
</trkpt>
<trkpt lat="53.3506868" lon="18.4304842">
<ele>109</ele>
<time>2015-05-28T12:44:22Z</time>
</trkpt>
<trkpt lat="53.3506865" lon="18.4304309">
<ele>107</ele>
<time>2015-05-28T12:44:24Z</time>
</trkpt>
<trkpt lat="53.3506889" lon="18.4303906">
<ele>108</ele>
<time>2015-05-28T12:44:26Z</time>
</trkpt>
<trkpt lat="53.3506959" lon="18.4303415">
<ele>110</ele>
<time>2015-05-28T12:44:28Z</time>
</trkpt>
<trkpt lat="53.3507069" lon="18.4302957">
<ele>109</ele>
<time>2015-05-28T12:44:30Z</time>
</trkpt>
<trkpt lat="53.3507192" lon="18.4302513">
<ele>108</ele>
<time>2015-05-28T12:44:32Z</time>
</trkpt>
<trkpt lat="53.3507298" lon="18.4302104">
<ele>108</ele>
<time>2015-05-28T12:44:34Z</time>
</trkpt>
<trkpt lat="53.3507262" lon="18.4301649">
<ele>109</ele>
<time>2015-05-28T12:44:36Z</time>
</trkpt>
<trkpt lat="53.3507146" lon="18.4301109">
<ele>110</ele>
<time>2015-05-28T12:44:38Z</time>
</trkpt>
<trkpt lat="53.3506997" lon="18.4300557">
<ele>111</ele>
<time>2015-05-28T12:44:40Z</time>
</trkpt>
<trkpt lat="53.3506873" lon="18.4300022">
<ele>111</ele>
<time>2015-05-28T12:44:42Z</time>
</trkpt>
<trkpt lat="53.3506784" lon="18.4299609">
<ele>109</ele>
<time>2015-05-28T12:44:44Z</time>
</trkpt>
<trkpt lat="53.3506728" lon="18.4299254">
<ele>108</ele>
<time>2015-05-28T12:44:46Z</time>
</trkpt>
<trkpt lat="53.3506712" lon="18.4298966">
<ele>107</ele>
<time>2015-05-28T12:44:48Z</time>
</trkpt>
<trkpt lat="53.3506672" lon="18.4298610">
<ele>107</ele>
<time>2015-05-28T12:44:50Z</time>
</trkpt>
<trkpt lat="53.3506664" lon="18.4298231">
<ele>107</ele>
<time>2015-05-28T12:44:52Z</time>
</trkpt>
<trkpt lat="53.3506703" lon="18.4297859">
<ele>106</ele>
<time>2015-05-28T12:44:54Z</time>
</trkpt>
<trkpt lat="53.3506747" lon="18.4297473">
<ele>105</ele>
<time>2015-05-28T12:44:56Z</time>
</trkpt>
<trkpt lat="53.3506760" lon="18.4297037">
<ele>105</ele>
<time>2015-05-28T12:44:58Z</time>
</trkpt>
<trkpt lat="53.3506801" lon="18.4296570">
<ele>105</ele>
<time>2015-05-28T12:45:00Z</time>
</trkpt>
<trkpt lat="53.3506884" lon="18.4296104">
<ele>106</ele>
<time>2015-05-28T12:45:02Z</time>
</trkpt>
<trkpt lat="53.3506970" lon="18.4295619">
<ele>106</ele>
<time>2015-05-28T12:45:04Z</time>
</trkpt>
<trkpt lat="53.3507008" lon="18.4295113">
<ele>107</ele>
<time>2015-05-28T12:45:06Z</time>
</trkpt>
<trkpt lat="53.3507007" lon="18.4294545">
<ele>107</ele>
<time>2015-05-28T12:45:08Z</time>
</trkpt>
<trkpt lat="53.3507009" lon="18.4293979">
<ele>106</ele>
<time>2015-05-28T12:45:10Z</time>
</trkpt>
<trkpt lat="53.3507048" lon="18.4293434">
<ele>105</ele>
<time>2015-05-28T12:45:12Z</time>
</trkpt>
<trkpt lat="53.350713" lon="18.4292900">
<ele>106</ele>
<time>2015-05-28T12:45:14Z</time>
</trkpt>
<trkpt lat="53.3507093" lon="18.4292347">
<ele>107</ele>
<time>2015-05-28T12:45:16Z</time>
</trkpt>
<trkpt lat="53.3506997" lon="18.4291874">
<ele>106</ele>
<time>2015-05-28T12:45:18Z</time>
</trkpt>
<trkpt lat="53.3506874" lon="18.4291377">
<ele>105</ele>
<time>2015-05-28T12:45:20Z</time>
</trkpt>
<trkpt lat="53.3506733" lon="18.4290886">
<ele>104</ele>
<time>2015-05-28T12:45:22Z</time>
</trkpt>
<trkpt lat="53.3506633" lon="18.4290408">
<ele>103</ele>
<time>2015-05-28T12:45:24Z</time>
</trkpt>
<trkpt lat="53.3506547" lon="18.4289991">
<ele>102</ele>
<time>2015-05-28T12:45:26Z</time>
</trkpt>
<trkpt lat="53.3506411" lon="18.4289555">
<ele>102</ele>
<time>2015-05-28T12:45:28Z</time>
</trkpt>
<trkpt lat="53.3506277" lon="18.4289141">
<ele>100</ele>
<time>2015-05-28T12:45:30Z</time>
</trkpt>
<trkpt lat="53.3506139" lon="18.4288706">
<ele>100</ele>
<time>2015-05-28T12:45:32Z</time>
</trkpt>
<trkpt lat="53.3506016" lon="18.4288207">
<ele>101</ele>
<time>2015-05-28T12:45:34Z</time>
</trkpt>
<trkpt lat="53.3505868" lon="18.4287617">
<ele>100</ele>
<time>2015-05-28T12:45:36Z</time>
</trkpt>
<trkpt lat="53.3505780" lon="18.4287024">
<ele>99</ele>
<time>2015-05-28T12:45:38Z</time>
</trkpt>
<trkpt lat="53.3505757" lon="18.4286514">
<ele>98</ele>
<time>2015-05-28T12:45:40Z</time>
</trkpt>
<trkpt lat="53.3505663" lon="18.4286044">
<ele>98</ele>
<time>2015-05-28T12:45:42Z</time>
</trkpt>
<trkpt lat="53.3505534" lon="18.4285615">
<ele>97</ele>
<time>2015-05-28T12:45:44Z</time>
</trkpt>
<trkpt lat="53.3505505" lon="18.4285133">
<ele>98</ele>
<time>2015-05-28T12:45:46Z</time>
</trkpt>
<trkpt lat="53.3505446" lon="18.4284657">
<ele>98</ele>
<time>2015-05-28T12:45:48Z</time>
</trkpt>
<trkpt lat="53.3505448" lon="18.4284202">
<ele>98</ele>
<time>2015-05-28T12:45:50Z</time>
</trkpt>
<trkpt lat="53.3505527" lon="18.4283998">
<ele>102</ele>
<time>2015-05-28T12:45:52Z</time>
</trkpt>
<trkpt lat="53.3505579" lon="18.4283773">
<ele>104</ele>
<time>2015-05-28T12:45:54Z</time>
</trkpt>
<trkpt lat="53.3505538" lon="18.4283383">
<ele>104</ele>
<time>2015-05-28T12:45:56Z</time>
</trkpt>
<trkpt lat="53.3505371" lon="18.4282905">
<ele>105</ele>
<time>2015-05-28T12:45:58Z</time>
</trkpt>
<trkpt lat="53.3505219" lon="18.4282378">
<ele>102</ele>
<time>2015-05-28T12:46:00Z</time>
</trkpt>
<trkpt lat="53.3505138" lon="18.4281836">
<ele>101</ele>
<time>2015-05-28T12:46:02Z</time>
</trkpt>
<trkpt lat="53.3505012" lon="18.4281347">
<ele>101</ele>
<time>2015-05-28T12:46:04Z</time>
</trkpt>
<trkpt lat="53.3504796" lon="18.4280929">
<ele>101</ele>
<time>2015-05-28T12:46:06Z</time>
</trkpt>
<trkpt lat="53.3504683" lon="18.4280268">
<ele>98</ele>
<time>2015-05-28T12:46:08Z</time>
</trkpt>
<trkpt lat="53.3504631" lon="18.4279432">
<ele>98</ele>
<time>2015-05-28T12:46:10Z</time>
</trkpt>
<trkpt lat="53.3504613" lon="18.4278600">
<ele>96</ele>
<time>2015-05-28T12:46:12Z</time>
</trkpt>
<trkpt lat="53.3504521" lon="18.4277895">
<ele>97</ele>
<time>2015-05-28T12:46:14Z</time>
</trkpt>
<trkpt lat="53.3504317" lon="18.4277318">
<ele>101</ele>
<time>2015-05-28T12:46:16Z</time>
</trkpt>
<trkpt lat="53.3504163" lon="18.4276818">
<ele>99</ele>
<time>2015-05-28T12:46:18Z</time>
</trkpt>
<trkpt lat="53.3503948" lon="18.4276441">
<ele>99</ele>
<time>2015-05-28T12:46:20Z</time>
</trkpt>
<trkpt lat="53.350371" lon="18.4276246">
<ele>98</ele>
<time>2015-05-28T12:46:22Z</time>
</trkpt>
<trkpt lat="53.3503524" lon="18.4276081">
<ele>98</ele>
<time>2015-05-28T12:46:24Z</time>
</trkpt>
<trkpt lat="53.3503347" lon="18.4275669">
<ele>101</ele>
<time>2015-05-28T12:46:26Z</time>
</trkpt>
<trkpt lat="53.3503176" lon="18.4275155">
<ele>103</ele>
<time>2015-05-28T12:46:28Z</time>
</trkpt>
<trkpt lat="53.3502966" lon="18.4274545">
<ele>104</ele>
<time>2015-05-28T12:46:30Z</time>
</trkpt>
<trkpt lat="53.3502842" lon="18.4273873">
<ele>102</ele>
<time>2015-05-28T12:46:32Z</time>
</trkpt>
<trkpt lat="53.3502775" lon="18.4273013">
<ele>102</ele>
<time>2015-05-28T12:46:34Z</time>
</trkpt>
<trkpt lat="53.3502716" lon="18.4272159">
<ele>102</ele>
<time>2015-05-28T12:46:36Z</time>
</trkpt>
<trkpt lat="53.3502611" lon="18.4271489">
<ele>101</ele>
<time>2015-05-28T12:46:38Z</time>
</trkpt>
<trkpt lat="53.3502255" lon="18.4271075">
<ele>103</ele>
<time>2015-05-28T12:46:40Z</time>
</trkpt>
<trkpt lat="53.3501865" lon="18.4270705">
<ele>102</ele>
<time>2015-05-28T12:46:42Z</time>
</trkpt>
<trkpt lat="53.3501556" lon="18.4270212">
<ele>102</ele>
<time>2015-05-28T12:46:44Z</time>
</trkpt>
<trkpt lat="53.3501648" lon="18.4269754">
<ele>99</ele>
<time>2015-05-28T12:46:46Z</time>
</trkpt>
<trkpt lat="53.3501689" lon="18.4269592">
<ele>97</ele>
<time>2015-05-28T12:46:48Z</time>
</trkpt>
<trkpt lat="53.3501606" lon="18.4269405">
<ele>98</ele>
<time>2015-05-28T12:46:50Z</time>
</trkpt>
<trkpt lat="53.3501482" lon="18.4269193">
<ele>99</ele>
<time>2015-05-28T12:46:52Z</time>
</trkpt>
<trkpt lat="53.3501283" lon="18.4268969">
<ele>100</ele>
<time>2015-05-28T12:46:54Z</time>
</trkpt>
<trkpt lat="53.3501174" lon="18.4268873">
<ele>99</ele>
<time>2015-05-28T12:46:56Z</time>
</trkpt>
<trkpt lat="53.3501007" lon="18.4268682">
<ele>99</ele>
<time>2015-05-28T12:46:58Z</time>
</trkpt>
<trkpt lat="53.3500794" lon="18.4268413">
<ele>101</ele>
<time>2015-05-28T12:47:00Z</time>
</trkpt>
<trkpt lat="53.3500568" lon="18.4268056">
<ele>102</ele>
<time>2015-05-28T12:47:02Z</time>
</trkpt>
<trkpt lat="53.3500387" lon="18.4267600">
<ele>105</ele>
<time>2015-05-28T12:47:04Z</time>
</trkpt>
<trkpt lat="53.3500243" lon="18.4267060">
<ele>106</ele>
<time>2015-05-28T12:47:06Z</time>
</trkpt>
<trkpt lat="53.3500087" lon="18.4266465">
<ele>106</ele>
<time>2015-05-28T12:47:08Z</time>
</trkpt>
<trkpt lat="53.3499959" lon="18.4265816">
<ele>105</ele>
<time>2015-05-28T12:47:10Z</time>
</trkpt>
<trkpt lat="53.3499879" lon="18.4265121">
<ele>105</ele>
<time>2015-05-28T12:47:12Z</time>
</trkpt>
<trkpt lat="53.3499784" lon="18.4264547">
<ele>103</ele>
<time>2015-05-28T12:47:14Z</time>
</trkpt>
<trkpt lat="53.3499613" lon="18.4264049">
<ele>104</ele>
<time>2015-05-28T12:47:16Z</time>
</trkpt>
<trkpt lat="53.3499416" lon="18.4263578">
<ele>104</ele>
<time>2015-05-28T12:47:18Z</time>
</trkpt>
<trkpt lat="53.3499146" lon="18.4263255">
<ele>103</ele>
<time>2015-05-28T12:47:20Z</time>
</trkpt>
<trkpt lat="53.3498854" lon="18.4262968">
<ele>105</ele>
<time>2015-05-28T12:47:22Z</time>
</trkpt>
<trkpt lat="53.3498630" lon="18.4262602">
<ele>106</ele>
<time>2015-05-28T12:47:24Z</time>
</trkpt>
<trkpt lat="53.3498495" lon="18.4262111">
<ele>104</ele>
<time>2015-05-28T12:47:26Z</time>
</trkpt>
<trkpt lat="53.3498396" lon="18.4261560">
<ele>104</ele>
<time>2015-05-28T12:47:28Z</time>
</trkpt>
<trkpt lat="53.3498301" lon="18.4261065">
<ele>103</ele>
<time>2015-05-28T12:47:30Z</time>
</trkpt>
<trkpt lat="53.3498215" lon="18.4260646">
<ele>102</ele>
<time>2015-05-28T12:47:32Z</time>
</trkpt>
<trkpt lat="53.3498122" lon="18.4260265">
<ele>101</ele>
<time>2015-05-28T12:47:34Z</time>
</trkpt>
<trkpt lat="53.3498049" lon="18.4259808">
<ele>100</ele>
<time>2015-05-28T12:47:36Z</time>
</trkpt>
<trkpt lat="53.3497930" lon="18.4259410">
<ele>101</ele>
<time>2015-05-28T12:47:38Z</time>
</trkpt>
<trkpt lat="53.3497796" lon="18.4259022">
<ele>103</ele>
<time>2015-05-28T12:47:40Z</time>
</trkpt>
<trkpt lat="53.3497646" lon="18.4258706">
<ele>102</ele>
<time>2015-05-28T12:47:42Z</time>
</trkpt>
<trkpt lat="53.3497503" lon="18.4258393">
<ele>102</ele>
<time>2015-05-28T12:47:44Z</time>
</trkpt>
<trkpt lat="53.3497299" lon="18.425816">
<ele>101</ele>
<time>2015-05-28T12:47:46Z</time>
</trkpt>
<trkpt lat="53.3497113" lon="18.4257924">
<ele>99</ele>
<time>2015-05-28T12:47:48Z</time>
</trkpt>
<trkpt lat="53.3496975" lon="18.4257501">
<ele>100</ele>
<time>2015-05-28T12:47:50Z</time>
</trkpt>
<trkpt lat="53.3496775" lon="18.4257076">
<ele>104</ele>
<time>2015-05-28T12:47:52Z</time>
</trkpt>
<trkpt lat="53.3496577" lon="18.4256595">
<ele>104</ele>
<time>2015-05-28T12:47:54Z</time>
</trkpt>
<trkpt lat="53.3496357" lon="18.4256166">
<ele>103</ele>
<time>2015-05-28T12:47:56Z</time>
</trkpt>
<trkpt lat="53.3496137" lon="18.4255880">
<ele>102</ele>
<time>2015-05-28T12:47:58Z</time>
</trkpt>
<trkpt lat="53.3496057" lon="18.4255552">
<ele>102</ele>
<time>2015-05-28T12:48:00Z</time>
</trkpt>
<trkpt lat="53.3495920" lon="18.4255325">
<ele>102</ele>
<time>2015-05-28T12:48:02Z</time>
</trkpt>
<trkpt lat="53.3495745" lon="18.4255053">
<ele>101</ele>
<time>2015-05-28T12:48:04Z</time>
</trkpt>
<trkpt lat="53.3495589" lon="18.4254706">
<ele>100</ele>
<time>2015-05-28T12:48:06Z</time>
</trkpt>
<trkpt lat="53.3495468" lon="18.4254251">
<ele>100</ele>
<time>2015-05-28T12:48:08Z</time>
</trkpt>
<trkpt lat="53.3495287" lon="18.4253840">
<ele>99</ele>
<time>2015-05-28T12:48:10Z</time>
</trkpt>
<trkpt lat="53.3495124" lon="18.4253394">
<ele>99</ele>
<time>2015-05-28T12:48:12Z</time>
</trkpt>
<trkpt lat="53.3494976" lon="18.4253035">
<ele>100</ele>
<time>2015-05-28T12:48:14Z</time>
</trkpt>
<trkpt lat="53.3494877" lon="18.4252656">
<ele>101</ele>
<time>2015-05-28T12:48:16Z</time>
</trkpt>
<trkpt lat="53.3494801" lon="18.4252203">
<ele>99</ele>
<time>2015-05-28T12:48:18Z</time>
</trkpt>
<trkpt lat="53.3494737" lon="18.4251795">
<ele>99</ele>
<time>2015-05-28T12:48:20Z</time>
</trkpt>
<trkpt lat="53.3494749" lon="18.4251222">
<ele>95</ele>
<time>2015-05-28T12:48:22Z</time>
</trkpt>
<trkpt lat="53.3494823" lon="18.4250579">
<ele>93</ele>
<time>2015-05-28T12:48:24Z</time>
</trkpt>
<trkpt lat="53.3494840" lon="18.4249929">
<ele>96</ele>
<time>2015-05-28T12:48:26Z</time>
</trkpt>
<trkpt lat="53.3494809" lon="18.4249336">
<ele>97</ele>
<time>2015-05-28T12:48:28Z</time>
</trkpt>
<trkpt lat="53.3494646" lon="18.4248906">
<ele>97</ele>
<time>2015-05-28T12:48:30Z</time>
</trkpt>
<trkpt lat="53.3494508" lon="18.4248460">
<ele>97</ele>
<time>2015-05-28T12:48:32Z</time>
</trkpt>
<trkpt lat="53.3494446" lon="18.4247960">
<ele>95</ele>
<time>2015-05-28T12:48:34Z</time>
</trkpt>
<trkpt lat="53.3494489" lon="18.4247391">
<ele>94</ele>
<time>2015-05-28T12:48:36Z</time>
</trkpt>
<trkpt lat="53.3494474" lon="18.4246844">
<ele>92</ele>
<time>2015-05-28T12:48:38Z</time>
</trkpt>
<trkpt lat="53.3494411" lon="18.4246398">
<ele>90</ele>
<time>2015-05-28T12:48:40Z</time>
</trkpt>
<trkpt lat="53.3494360" lon="18.4245938">
<ele>90</ele>
<time>2015-05-28T12:48:42Z</time>
</trkpt>
<trkpt lat="53.3494171" lon="18.4245653">
<ele>90</ele>
<time>2015-05-28T12:48:44Z</time>
</trkpt>
<trkpt lat="53.3494095" lon="18.4245208">
<ele>88</ele>
<time>2015-05-28T12:48:46Z</time>
</trkpt>
<trkpt lat="53.3494" lon="18.4244616">
<ele>88</ele>
<time>2015-05-28T12:48:48Z</time>
</trkpt>
<trkpt lat="53.3493895" lon="18.4244035">
<ele>85</ele>
<time>2015-05-28T12:48:50Z</time>
</trkpt>
<trkpt lat="53.3493763" lon="18.4243583">
<ele>85</ele>
<time>2015-05-28T12:48:52Z</time>
</trkpt>
<trkpt lat="53.3493487" lon="18.4243276">
<ele>87</ele>
<time>2015-05-28T12:48:54Z</time>
</trkpt>
<trkpt lat="53.3493144" lon="18.4243033">
<ele>94</ele>
<time>2015-05-28T12:48:56Z</time>
</trkpt>
<trkpt lat="53.3492809" lon="18.4242802">
<ele>94</ele>
<time>2015-05-28T12:48:58Z</time>
</trkpt>
<trkpt lat="53.3492538" lon="18.4242499">
<ele>97</ele>
<time>2015-05-28T12:49:00Z</time>
</trkpt>
<trkpt lat="53.3492311" lon="18.4242188">
<ele>96</ele>
<time>2015-05-28T12:49:02Z</time>
</trkpt>
<trkpt lat="53.3492075" lon="18.4241898">
<ele>97</ele>
<time>2015-05-28T12:49:04Z</time>
</trkpt>
<trkpt lat="53.3491839" lon="18.4241564">
<ele>97</ele>
<time>2015-05-28T12:49:06Z</time>
</trkpt>
<trkpt lat="53.3491619" lon="18.4241173">
<ele>99</ele>
<time>2015-05-28T12:49:08Z</time>
</trkpt>
<trkpt lat="53.3491440" lon="18.4240687">
<ele>100</ele>
<time>2015-05-28T12:49:10Z</time>
</trkpt>
<trkpt lat="53.3491295" lon="18.4240190">
<ele>101</ele>
<time>2015-05-28T12:49:12Z</time>
</trkpt>
<trkpt lat="53.3491115" lon="18.4239767">
<ele>102</ele>
<time>2015-05-28T12:49:14Z</time>
</trkpt>
<trkpt lat="53.3490898" lon="18.4239394">
<ele>100</ele>
<time>2015-05-28T12:49:16Z</time>
</trkpt>
<trkpt lat="53.3490688" lon="18.4239005">
<ele>102</ele>
<time>2015-05-28T12:49:18Z</time>
</trkpt>
<trkpt lat="53.3490520" lon="18.4238534">
<ele>103</ele>
<time>2015-05-28T12:49:20Z</time>
</trkpt>
<trkpt lat="53.3490406" lon="18.4237991">
<ele>105</ele>
<time>2015-05-28T12:49:22Z</time>
</trkpt>
<trkpt lat="53.3490253" lon="18.4237606">
<ele>103</ele>
<time>2015-05-28T12:49:24Z</time>
</trkpt>
<trkpt lat="53.3490009" lon="18.4237481">
<ele>103</ele>
<time>2015-05-28T12:49:26Z</time>
</trkpt>
<trkpt lat="53.3489823" lon="18.4237301">
<ele>101</ele>
<time>2015-05-28T12:49:28Z</time>
</trkpt>
<trkpt lat="53.3489667" lon="18.4236940">
<ele>103</ele>
<time>2015-05-28T12:49:30Z</time>
</trkpt>
<trkpt lat="53.3489512" lon="18.4236476">
<ele>105</ele>
<time>2015-05-28T12:49:32Z</time>
</trkpt>
<trkpt lat="53.3489345" lon="18.4235897">
<ele>104</ele>
<time>2015-05-28T12:49:34Z</time>
</trkpt>
<trkpt lat="53.3489196" lon="18.4235286">
<ele>104</ele>
<time>2015-05-28T12:49:36Z</time>
</trkpt>
<trkpt lat="53.3489080" lon="18.4234729">
<ele>103</ele>
<time>2015-05-28T12:49:38Z</time>
</trkpt>
<trkpt lat="53.3488949" lon="18.4234189">
<ele>103</ele>
<time>2015-05-28T12:49:40Z</time>
</trkpt>
<trkpt lat="53.3488803" lon="18.4233762">
<ele>102</ele>
<time>2015-05-28T12:49:42Z</time>
</trkpt>
<trkpt lat="53.3488677" lon="18.4233350">
<ele>102</ele>
<time>2015-05-28T12:49:44Z</time>
</trkpt>
<trkpt lat="53.3488534" lon="18.4232954">
<ele>101</ele>
<time>2015-05-28T12:49:46Z</time>
</trkpt>
<trkpt lat="53.3488374" lon="18.4232654">
<ele>99</ele>
<time>2015-05-28T12:49:48Z</time>
</trkpt>
<trkpt lat="53.3488204" lon="18.4232459">
<ele>99</ele>
<time>2015-05-28T12:49:50Z</time>
</trkpt>
<trkpt lat="53.3488033" lon="18.4232107">
<ele>101</ele>
<time>2015-05-28T12:49:52Z</time>
</trkpt>
<trkpt lat="53.3487851" lon="18.4231627">
<ele>104</ele>
<time>2015-05-28T12:49:54Z</time>
</trkpt>
<trkpt lat="53.3487676" lon="18.4231121">
<ele>105</ele>
<time>2015-05-28T12:49:56Z</time>
</trkpt>
<trkpt lat="53.3487508" lon="18.4230585">
<ele>105</ele>
<time>2015-05-28T12:49:58Z</time>
</trkpt>
<trkpt lat="53.3487344" lon="18.4230041">
<ele>106</ele>
<time>2015-05-28T12:50:00Z</time>
</trkpt>
<trkpt lat="53.3487190" lon="18.4229550">
<ele>107</ele>
<time>2015-05-28T12:50:02Z</time>
</trkpt>
<trkpt lat="53.3487056" lon="18.4229071">
<ele>106</ele>
<time>2015-05-28T12:50:04Z</time>
</trkpt>
<trkpt lat="53.3486888" lon="18.4228828">
<ele>106</ele>
<time>2015-05-28T12:50:06Z</time>
</trkpt>
<trkpt lat="53.3486752" lon="18.4228429">
<ele>107</ele>
<time>2015-05-28T12:50:08Z</time>
</trkpt>
<trkpt lat="53.3486646" lon="18.4227980">
<ele>107</ele>
<time>2015-05-28T12:50:10Z</time>
</trkpt>
<trkpt lat="53.3486560" lon="18.4227503">
<ele>106</ele>
<time>2015-05-28T12:50:12Z</time>
</trkpt>
<trkpt lat="53.3486496" lon="18.4226934">
<ele>106</ele>
<time>2015-05-28T12:50:14Z</time>
</trkpt>
<trkpt lat="53.3486382" lon="18.4226406">
<ele>104</ele>
<time>2015-05-28T12:50:16Z</time>
</trkpt>
<trkpt lat="53.3486252" lon="18.4225968">
<ele>103</ele>
<time>2015-05-28T12:50:18Z</time>
</trkpt>
<trkpt lat="53.3486105" lon="18.4225542">
<ele>104</ele>
<time>2015-05-28T12:50:20Z</time>
</trkpt>
<trkpt lat="53.3485915" lon="18.4225113">
<ele>104</ele>
<time>2015-05-28T12:50:22Z</time>
</trkpt>
<trkpt lat="53.3485692" lon="18.4224736">
<ele>104</ele>
<time>2015-05-28T12:50:24Z</time>
</trkpt>
<trkpt lat="53.3485446" lon="18.4224422">
<ele>104</ele>
<time>2015-05-28T12:50:26Z</time>
</trkpt>
<trkpt lat="53.3485221" lon="18.4224184">
<ele>104</ele>
<time>2015-05-28T12:50:28Z</time>
</trkpt>
<trkpt lat="53.3485086" lon="18.4223900">
<ele>104</ele>
<time>2015-05-28T12:50:30Z</time>
</trkpt>
<trkpt lat="53.3484981" lon="18.4223528">
<ele>105</ele>
<time>2015-05-28T12:50:32Z</time>
</trkpt>
<trkpt lat="53.3484871" lon="18.4223163">
<ele>106</ele>
<time>2015-05-28T12:50:34Z</time>
</trkpt>
<trkpt lat="53.3484721" lon="18.4222828">
<ele>105</ele>
<time>2015-05-28T12:50:36Z</time>
</trkpt>
<trkpt lat="53.3484596" lon="18.4222434">
<ele>105</ele>
<time>2015-05-28T12:50:38Z</time>
</trkpt>
<trkpt lat="53.3484452" lon="18.4222006">
<ele>104</ele>
<time>2015-05-28T12:50:40Z</time>
</trkpt>
<trkpt lat="53.3484279" lon="18.4221606">
<ele>103</ele>
<time>2015-05-28T12:50:42Z</time>
</trkpt>
<trkpt lat="53.3484113" lon="18.4221188">
<ele>103</ele>
<time>2015-05-28T12:50:44Z</time>
</trkpt>
<trkpt lat="53.3483927" lon="18.4220791">
<ele>101</ele>
<time>2015-05-28T12:50:46Z</time>
</trkpt>
<trkpt lat="53.3483761" lon="18.4220374">
<ele>100</ele>
<time>2015-05-28T12:50:48Z</time>
</trkpt>
<trkpt lat="53.3483581" lon="18.4219972">
<ele>100</ele>
<time>2015-05-28T12:50:50Z</time>
</trkpt>
<trkpt lat="53.3483420" lon="18.4219585">
<ele>101</ele>
<time>2015-05-28T12:50:52Z</time>
</trkpt>
<trkpt lat="53.3483241" lon="18.4219212">
<ele>100</ele>
<time>2015-05-28T12:50:54Z</time>
</trkpt>
<trkpt lat="53.3483066" lon="18.4218747">
<ele>99</ele>
<time>2015-05-28T12:50:56Z</time>
</trkpt>
<trkpt lat="53.3482839" lon="18.4218301">
<ele>99</ele>
<time>2015-05-28T12:50:58Z</time>
</trkpt>
<trkpt lat="53.3482591" lon="18.421789">
<ele>98</ele>
<time>2015-05-28T12:51:00Z</time>
</trkpt>
<trkpt lat="53.3482377" lon="18.4217461">
<ele>97</ele>
<time>2015-05-28T12:51:02Z</time>
</trkpt>
<trkpt lat="53.3482202" lon="18.4217015">
<ele>97</ele>
<time>2015-05-28T12:51:04Z</time>
</trkpt>
<trkpt lat="53.3482089" lon="18.4216547">
<ele>96</ele>
<time>2015-05-28T12:51:06Z</time>
</trkpt>
<trkpt lat="53.3481993" lon="18.4216042">
<ele>97</ele>
<time>2015-05-28T12:51:08Z</time>
</trkpt>
<trkpt lat="53.3481854" lon="18.4215543">
<ele>96</ele>
<time>2015-05-28T12:51:10Z</time>
</trkpt>
<trkpt lat="53.3481709" lon="18.4215054">
<ele>97</ele>
<time>2015-05-28T12:51:12Z</time>
</trkpt>
<trkpt lat="53.3481569" lon="18.4214572">
<ele>99</ele>
<time>2015-05-28T12:51:14Z</time>
</trkpt>
<trkpt lat="53.3481418" lon="18.4214116">
<ele>99</ele>
<time>2015-05-28T12:51:16Z</time>
</trkpt>
<trkpt lat="53.3481338" lon="18.4213736">
<ele>100</ele>
<time>2015-05-28T12:51:18Z</time>
</trkpt>
<trkpt lat="53.3481358" lon="18.4213329">
<ele>100</ele>
<time>2015-05-28T12:51:20Z</time>
</trkpt>
<trkpt lat="53.3481352" lon="18.4212935">
<ele>100</ele>
<time>2015-05-28T12:51:22Z</time>
</trkpt>
<trkpt lat="53.3481224" lon="18.4212530">
<ele>103</ele>
<time>2015-05-28T12:51:24Z</time>
</trkpt>
<trkpt lat="53.3481033" lon="18.4212052">
<ele>103</ele>
<time>2015-05-28T12:51:26Z</time>
</trkpt>
<trkpt lat="53.3480842" lon="18.4211551">
<ele>103</ele>
<time>2015-05-28T12:51:28Z</time>
</trkpt>
<trkpt lat="53.3480613" lon="18.4211098">
<ele>104</ele>
<time>2015-05-28T12:51:30Z</time>
</trkpt>
<trkpt lat="53.3480354" lon="18.4210872">
<ele>102</ele>
<time>2015-05-28T12:51:32Z</time>
</trkpt>
<trkpt lat="53.3480164" lon="18.4210792">
<ele>101</ele>
<time>2015-05-28T12:51:34Z</time>
</trkpt>
<trkpt lat="53.3480019" lon="18.4210432">
<ele>101</ele>
<time>2015-05-28T12:51:36Z</time>
</trkpt>
<trkpt lat="53.3479948" lon="18.4209962">
<ele>100</ele>
<time>2015-05-28T12:51:38Z</time>
</trkpt>
<trkpt lat="53.3479859" lon="18.4209499">
<ele>98</ele>
<time>2015-05-28T12:51:40Z</time>
</trkpt>
<trkpt lat="53.3479728" lon="18.4209026">
<ele>99</ele>
<time>2015-05-28T12:51:42Z</time>
</trkpt>
<trkpt lat="53.3479595" lon="18.4208500">
<ele>99</ele>
<time>2015-05-28T12:51:44Z</time>
</trkpt>
<trkpt lat="53.3479433" lon="18.4207857">
<ele>99</ele>
<time>2015-05-28T12:51:46Z</time>
</trkpt>
<trkpt lat="53.3479248" lon="18.4207373">
<ele>99</ele>
<time>2015-05-28T12:51:48Z</time>
</trkpt>
<trkpt lat="53.3479064" lon="18.4206955">
<ele>100</ele>
<time>2015-05-28T12:51:50Z</time>
</trkpt>
<trkpt lat="53.3478889" lon="18.4206519">
<ele>100</ele>
<time>2015-05-28T12:51:52Z</time>
</trkpt>
<trkpt lat="53.3478741" lon="18.4206091">
<ele>100</ele>
<time>2015-05-28T12:51:54Z</time>
</trkpt>
<trkpt lat="53.3478562" lon="18.4205757">
<ele>99</ele>
<time>2015-05-28T12:51:56Z</time>
</trkpt>
<trkpt lat="53.3478385" lon="18.4205415">
<ele>100</ele>
<time>2015-05-28T12:51:58Z</time>
</trkpt>
<trkpt lat="53.3478249" lon="18.4204976">
<ele>102</ele>
<time>2015-05-28T12:52:00Z</time>
</trkpt>
<trkpt lat="53.3478105" lon="18.4204544">
<ele>103</ele>
<time>2015-05-28T12:52:02Z</time>
</trkpt>
<trkpt lat="53.3477925" lon="18.4204155">
<ele>102</ele>
<time>2015-05-28T12:52:04Z</time>
</trkpt>
<trkpt lat="53.3477762" lon="18.4203698">
<ele>104</ele>
<time>2015-05-28T12:52:06Z</time>
</trkpt>
<trkpt lat="53.3477580" lon="18.4203212">
<ele>104</ele>
<time>2015-05-28T12:52:08Z</time>
</trkpt>
<trkpt lat="53.3477390" lon="18.4202766">
<ele>104</ele>
<time>2015-05-28T12:52:10Z</time>
</trkpt>
<trkpt lat="53.3477249" lon="18.4202404">
<ele>101</ele>
<time>2015-05-28T12:52:12Z</time>
</trkpt>
<trkpt lat="53.3477142" lon="18.4201996">
<ele>100</ele>
<time>2015-05-28T12:52:14Z</time>
</trkpt>
<trkpt lat="53.3477123" lon="18.4201421">
<ele>99</ele>
<time>2015-05-28T12:52:16Z</time>
</trkpt>
<trkpt lat="53.3477081" lon="18.4200836">
<ele>99</ele>
<time>2015-05-28T12:52:18Z</time>
</trkpt>
<trkpt lat="53.3476954" lon="18.4200238">
<ele>99</ele>
<time>2015-05-28T12:52:20Z</time>
</trkpt>
<trkpt lat="53.3476797" lon="18.4199616">
<ele>104</ele>
<time>2015-05-28T12:52:22Z</time>
</trkpt>
<trkpt lat="53.3476572" lon="18.4199285">
<ele>102</ele>
<time>2015-05-28T12:52:24Z</time>
</trkpt>
<trkpt lat="53.3476377" lon="18.4198991">
<ele>102</ele>
<time>2015-05-28T12:52:26Z</time>
</trkpt>
<trkpt lat="53.3476217" lon="18.4198922">
<ele>100</ele>
<time>2015-05-28T12:52:28Z</time>
</trkpt>
<trkpt lat="53.3475992" lon="18.4198830">
<ele>99</ele>
<time>2015-05-28T12:52:30Z</time>
</trkpt>
<trkpt lat="53.3475705" lon="18.4198775">
<ele>101</ele>
<time>2015-05-28T12:52:32Z</time>
</trkpt>
<trkpt lat="53.3475404" lon="18.4198935">
<ele>102</ele>
<time>2015-05-28T12:52:34Z</time>
</trkpt>
<trkpt lat="53.3475104" lon="18.4199361">
<ele>103</ele>
<time>2015-05-28T12:52:36Z</time>
</trkpt>
<trkpt lat="53.3474732" lon="18.4199783">
<ele>104</ele>
<time>2015-05-28T12:52:38Z</time>
</trkpt>
<trkpt lat="53.3474382" lon="18.4200204">
<ele>104</ele>
<time>2015-05-28T12:52:40Z</time>
</trkpt>
<trkpt lat="53.3474022" lon="18.4200674">
<ele>103</ele>
<time>2015-05-28T12:52:42Z</time>
</trkpt>
<trkpt lat="53.3473671" lon="18.4201096">
<ele>103</ele>
<time>2015-05-28T12:52:44Z</time>
</trkpt>
<trkpt lat="53.3473334" lon="18.4201578">
<ele>100</ele>
<time>2015-05-28T12:52:46Z</time>
</trkpt>
<trkpt lat="53.3473019" lon="18.4201990">
<ele>104</ele>
<time>2015-05-28T12:52:48Z</time>
</trkpt>
<trkpt lat="53.3470672" lon="18.4202893">
<ele>104</ele>
<time>2015-05-28T12:53:12Z</time>
</trkpt>
<trkpt lat="53.3470613" lon="18.4202830">
<ele>104</ele>
<time>2015-05-28T12:53:14Z</time>
</trkpt>
<trkpt lat="53.3470515" lon="18.4202941">
<ele>103</ele>
<time>2015-05-28T12:53:16Z</time>
</trkpt>
<trkpt lat="53.3470396" lon="18.4202973">
<ele>105</ele>
<time>2015-05-28T12:53:18Z</time>
</trkpt>
<trkpt lat="53.3470306" lon="18.4202876">
<ele>106</ele>
<time>2015-05-28T12:53:20Z</time>
</trkpt>
<trkpt lat="53.3470212" lon="18.4202784">
<ele>105</ele>
<time>2015-05-28T12:53:22Z</time>
</trkpt>
<trkpt lat="53.3470155" lon="18.4202596">
<ele>104</ele>
<time>2015-05-28T12:53:24Z</time>
</trkpt>
<trkpt lat="53.3470152" lon="18.4202539">
<ele>103</ele>
<time>2015-05-28T12:53:26Z</time>
</trkpt>
<trkpt lat="53.3470118" lon="18.4202562">
<ele>104</ele>
<time>2015-05-28T12:53:28Z</time>
</trkpt>
<trkpt lat="53.3470120" lon="18.4202572">
<ele>104</ele>
<time>2015-05-28T12:53:30Z</time>
</trkpt>
<trkpt lat="53.3470221" lon="18.4202419">
<ele>103</ele>
<time>2015-05-28T12:53:48Z</time>
</trkpt>
<trkpt lat="53.3470212" lon="18.4202424">
<ele>103</ele>
<time>2015-05-28T12:53:50Z</time>
</trkpt>
<trkpt lat="53.3470208" lon="18.4202423">
<ele>103</ele>
<time>2015-05-28T12:53:52Z</time>
</trkpt>
<trkpt lat="53.3470212" lon="18.4202428">
<ele>104</ele>
<time>2015-05-28T12:53:54Z</time>
</trkpt>
<trkpt lat="53.3470214" lon="18.4202431">
<ele>104</ele>
<time>2015-05-28T12:53:56Z</time>
</trkpt>
<trkpt lat="53.3470215" lon="18.4202431">
<ele>104</ele>
<time>2015-05-28T12:53:58Z</time>
</trkpt>
<trkpt lat="53.3470215" lon="18.4202431">
<ele>104</ele>
<time>2015-05-28T12:54:00Z</time>
</trkpt>
<trkpt lat="53.3470214" lon="18.4202430">
<ele>104</ele>
<time>2015-05-28T12:54:02Z</time>
</trkpt>
<trkpt lat="53.3470214" lon="18.4202431">
<ele>104</ele>
<time>2015-05-28T12:54:04Z</time>
</trkpt>
<trkpt lat="53.3470215" lon="18.4202430">
<ele>104</ele>
<time>2015-05-28T12:54:06Z</time>
</trkpt>
<trkpt lat="53.3470216" lon="18.4202432">
<ele>103</ele>
<time>2015-05-28T12:54:08Z</time>
</trkpt>
<trkpt lat="53.3470216" lon="18.4202431">
<ele>104</ele>
<time>2015-05-28T12:54:10Z</time>
</trkpt>
<trkpt lat="53.3470216" lon="18.4202431">
<ele>104</ele>
<time>2015-05-28T12:54:12Z</time>
</trkpt>
<trkpt lat="53.3470216" lon="18.4202431">
<ele>104</ele>
<time>2015-05-28T12:54:14Z</time>
</trkpt>
<trkpt lat="53.3470216" lon="18.4202431">
<ele>104</ele>
<time>2015-05-28T12:54:16Z</time>
</trkpt>
<trkpt lat="53.3470216" lon="18.4202432">
<ele>104</ele>
<time>2015-05-28T12:54:18Z</time>
</trkpt>
<trkpt lat="53.3470216" lon="18.4202432">
<ele>104</ele>
<time>2015-05-28T12:54:20Z</time>
</trkpt>
<trkpt lat="53.3470217" lon="18.4202433">
<ele>104</ele>
<time>2015-05-28T12:54:22Z</time>
</trkpt>
<trkpt lat="53.3470219" lon="18.4202433">
<ele>103</ele>
<time>2015-05-28T12:54:30Z</time>
</trkpt>
<trkpt lat="53.3470219" lon="18.4202433">
<ele>104</ele>
<time>2015-05-28T12:54:32Z</time>
</trkpt>
<trkpt lat="53.3470218" lon="18.4202433">
<ele>104</ele>
<time>2015-05-28T12:54:34Z</time>
</trkpt>
<trkpt lat="53.3470218" lon="18.4202433">
<ele>104</ele>
<time>2015-05-28T12:54:36Z</time>
</trkpt>
<trkpt lat="53.3470218" lon="18.4202433">
<ele>104</ele>
<time>2015-05-28T12:54:38Z</time>
</trkpt>
<trkpt lat="53.3470219" lon="18.4202433">
<ele>104</ele>
<time>2015-05-28T12:54:40Z</time>
</trkpt>
<trkpt lat="53.3470219" lon="18.4202433">
<ele>104</ele>
<time>2015-05-28T12:54:42Z</time>
</trkpt>
<trkpt lat="53.3470219" lon="18.4202433">
<ele>104</ele>
<time>2015-05-28T12:54:44Z</time>
</trkpt>
<trkpt lat="53.3470219" lon="18.4202433">
<ele>104</ele>
<time>2015-05-28T12:54:46Z</time>
</trkpt>
<trkpt lat="53.3470219" lon="18.4202433">
<ele>104</ele>
<time>2015-05-28T12:54:48Z</time>
</trkpt>
<trkpt lat="53.3470217" lon="18.4202433">
<ele>104</ele>
<time>2015-05-28T12:55:20Z</time>
</trkpt>
<trkpt lat="53.3470216" lon="18.4202435">
<ele>104</ele>
<time>2015-05-28T12:55:23Z</time>
</trkpt>
<trkpt lat="53.3470216" lon="18.4202435">
<ele>104</ele>
<time>2015-05-28T12:55:25Z</time>
</trkpt>
<trkpt lat="53.3470217" lon="18.4202435">
<ele>104</ele>
<time>2015-05-28T12:55:27Z</time>
</trkpt>
<trkpt lat="53.3470217" lon="18.4202436">
<ele>104</ele>
<time>2015-05-28T12:55:29Z</time>
</trkpt>
<trkpt lat="53.3470343" lon="18.4202525">
<ele>94</ele>
<time>2015-05-28T12:55:43Z</time>
</trkpt>
<trkpt lat="53.3470531" lon="18.4202690">
<ele>92</ele>
<time>2015-05-28T12:55:45Z</time>
</trkpt>
<trkpt lat="53.3470708" lon="18.4202879">
<ele>96</ele>
<time>2015-05-28T12:55:47Z</time>
</trkpt>
<trkpt lat="53.3470904" lon="18.4203037">
<ele>94</ele>
<time>2015-05-28T12:55:49Z</time>
</trkpt>
<trkpt lat="53.3471137" lon="18.4203254">
<ele>95</ele>
<time>2015-05-28T12:55:51Z</time>
</trkpt>
<trkpt lat="53.3475798" lon="18.4224571">
<ele>100</ele>
<time>2015-05-28T12:57:47Z</time>
</trkpt>
<trkpt lat="53.3475954" lon="18.4225028">
<ele>100</ele>
<time>2015-05-28T12:57:49Z</time>
</trkpt>
<trkpt lat="53.3476092" lon="18.4225482">
<ele>100</ele>
<time>2015-05-28T12:57:51Z</time>
</trkpt>
<trkpt lat="53.3476189" lon="18.4225920">
<ele>101</ele>
<time>2015-05-28T12:57:53Z</time>
</trkpt>
<trkpt lat="53.3476308" lon="18.4226311">
<ele>100</ele>
<time>2015-05-28T12:57:55Z</time>
</trkpt>
<trkpt lat="53.3476482" lon="18.4226625">
<ele>100</ele>
<time>2015-05-28T12:57:57Z</time>
</trkpt>
<trkpt lat="53.3476570" lon="18.4227002">
<ele>100</ele>
<time>2015-05-28T12:57:59Z</time>
</trkpt>
<trkpt lat="53.3476585" lon="18.4227431">
<ele>99</ele>
<time>2015-05-28T12:58:01Z</time>
</trkpt>
<trkpt lat="53.347664" lon="18.4227817">
<ele>98</ele>
<time>2015-05-28T12:58:03Z</time>
</trkpt>
<trkpt lat="53.3476831" lon="18.4228130">
<ele>100</ele>
<time>2015-05-28T12:58:05Z</time>
</trkpt>
<trkpt lat="53.3477011" lon="18.4228314">
<ele>97</ele>
<time>2015-05-28T12:58:07Z</time>
</trkpt>
<trkpt lat="53.3477125" lon="18.4228602">
<ele>99</ele>
<time>2015-05-28T12:58:09Z</time>
</trkpt>
<trkpt lat="53.3477200" lon="18.4229006">
<ele>100</ele>
<time>2015-05-28T12:58:11Z</time>
</trkpt>
<trkpt lat="53.3477262" lon="18.4229433">
<ele>100</ele>
<time>2015-05-28T12:58:13Z</time>
</trkpt>
<trkpt lat="53.3477357" lon="18.4229845">
<ele>99</ele>
<time>2015-05-28T12:58:15Z</time>
</trkpt>
<trkpt lat="53.3477527" lon="18.4230187">
<ele>99</ele>
<time>2015-05-28T12:58:17Z</time>
</trkpt>
<trkpt lat="53.3477755" lon="18.4230375">
<ele>97</ele>
<time>2015-05-28T12:58:19Z</time>
</trkpt>
<trkpt lat="53.3478701" lon="18.4233221">
<ele>97</ele>
<time>2015-05-28T12:58:35Z</time>
</trkpt>
<trkpt lat="53.3478733" lon="18.4233704">
<ele>96</ele>
<time>2015-05-28T12:58:37Z</time>
</trkpt>
<trkpt lat="53.3478772" lon="18.4234165">
<ele>96</ele>
<time>2015-05-28T12:58:39Z</time>
</trkpt>
<trkpt lat="53.3478870" lon="18.4234539">
<ele>95</ele>
<time>2015-05-28T12:58:41Z</time>
</trkpt>
<trkpt lat="53.3478924" lon="18.4234976">
<ele>95</ele>
<time>2015-05-28T12:58:43Z</time>
</trkpt>
<trkpt lat="53.3478985" lon="18.4235433">
<ele>95</ele>
<time>2015-05-28T12:58:45Z</time>
</trkpt>
<trkpt lat="53.3479247" lon="18.4235682">
<ele>97</ele>
<time>2015-05-28T12:58:47Z</time>
</trkpt>
<trkpt lat="53.3479443" lon="18.4236013">
<ele>97</ele>
<time>2015-05-28T12:58:49Z</time>
</trkpt>
<trkpt lat="53.3479609" lon="18.4236334">
<ele>98</ele>
<time>2015-05-28T12:58:51Z</time>
</trkpt>
<trkpt lat="53.3479776" lon="18.4236621">
<ele>97</ele>
<time>2015-05-28T12:58:53Z</time>
</trkpt>
<trkpt lat="53.3479942" lon="18.4236955">
<ele>98</ele>
<time>2015-05-28T12:58:55Z</time>
</trkpt>
<trkpt lat="53.3480039" lon="18.4237391">
<ele>97</ele>
<time>2015-05-28T12:58:57Z</time>
</trkpt>
<trkpt lat="53.3480187" lon="18.4237743">
<ele>97</ele>
<time>2015-05-28T12:58:59Z</time>
</trkpt>
<trkpt lat="53.3483723" lon="18.4249310">
<ele>99</ele>
<time>2015-05-28T13:00:03Z</time>
</trkpt>
<trkpt lat="53.3483947" lon="18.4249307">
<ele>100</ele>
<time>2015-05-28T13:00:05Z</time>
</trkpt>
<trkpt lat="53.3484120" lon="18.4249530">
<ele>98</ele>
<time>2015-05-28T13:00:07Z</time>
</trkpt>
<trkpt lat="53.3484264" lon="18.4249841">
<ele>97</ele>
<time>2015-05-28T13:00:09Z</time>
</trkpt>
<trkpt lat="53.3484433" lon="18.4250191">
<ele>97</ele>
<time>2015-05-28T13:00:11Z</time>
</trkpt>
<trkpt lat="53.3484611" lon="18.4250505">
<ele>98</ele>
<time>2015-05-28T13:00:13Z</time>
</trkpt>
<trkpt lat="53.3484804" lon="18.4250801">
<ele>98</ele>
<time>2015-05-28T13:00:15Z</time>
</trkpt>
<trkpt lat="53.3485027" lon="18.4251110">
<ele>98</ele>
<time>2015-05-28T13:00:17Z</time>
</trkpt>
<trkpt lat="53.3485210" lon="18.4251478">
<ele>98</ele>
<time>2015-05-28T13:00:19Z</time>
</trkpt>
<trkpt lat="53.3485404" lon="18.4251776">
<ele>97</ele>
<time>2015-05-28T13:00:21Z</time>
</trkpt>
<trkpt lat="53.3485515" lon="18.4252140">
<ele>96</ele>
<time>2015-05-28T13:00:23Z</time>
</trkpt>
<trkpt lat="53.348551" lon="18.4252688">
<ele>97</ele>
<time>2015-05-28T13:00:25Z</time>
</trkpt>
<trkpt lat="53.3485498" lon="18.4253337">
<ele>97</ele>
<time>2015-05-28T13:00:27Z</time>
</trkpt>
<trkpt lat="53.3485524" lon="18.4254005">
<ele>99</ele>
<time>2015-05-28T13:00:29Z</time>
</trkpt>
<trkpt lat="53.3485570" lon="18.4254630">
<ele>99</ele>
<time>2015-05-28T13:00:31Z</time>
</trkpt>
<trkpt lat="53.3485774" lon="18.4254878">
<ele>101</ele>
<time>2015-05-28T13:00:33Z</time>
</trkpt>
<trkpt lat="53.3485965" lon="18.4255102">
<ele>101</ele>
<time>2015-05-28T13:00:35Z</time>
</trkpt>
<trkpt lat="53.3486085" lon="18.4255416">
<ele>100</ele>
<time>2015-05-28T13:00:37Z</time>
</trkpt>
<trkpt lat="53.3486224" lon="18.4255678">
<ele>98</ele>
<time>2015-05-28T13:00:39Z</time>
</trkpt>
<trkpt lat="53.3486334" lon="18.4255955">
<ele>98</ele>
<time>2015-05-28T13:00:41Z</time>
</trkpt>
<trkpt lat="53.3486461" lon="18.4256337">
<ele>99</ele>
<time>2015-05-28T13:00:43Z</time>
</trkpt>
<trkpt lat="53.3486466" lon="18.4256945">
<ele>100</ele>
<time>2015-05-28T13:00:45Z</time>
</trkpt>
<trkpt lat="53.3486530" lon="18.4257491">
<ele>101</ele>
<time>2015-05-28T13:00:47Z</time>
</trkpt>
<trkpt lat="53.3486679" lon="18.4257866">
<ele>101</ele>
<time>2015-05-28T13:00:49Z</time>
</trkpt>
<trkpt lat="53.3486778" lon="18.4258230">
<ele>101</ele>
<time>2015-05-28T13:00:51Z</time>
</trkpt>
<trkpt lat="53.3486858" lon="18.4258662">
<ele>103</ele>
<time>2015-05-28T13:00:53Z</time>
</trkpt>
<trkpt lat="53.3486967" lon="18.4258896">
<ele>101</ele>
<time>2015-05-28T13:00:55Z</time>
</trkpt>
<trkpt lat="53.3487102" lon="18.4259087">
<ele>100</ele>
<time>2015-05-28T13:00:57Z</time>
</trkpt>
<trkpt lat="53.3487205" lon="18.4259372">
<ele>102</ele>
<time>2015-05-28T13:00:59Z</time>
</trkpt>
<trkpt lat="53.3487340" lon="18.4259693">
<ele>101</ele>
<time>2015-05-28T13:01:01Z</time>
</trkpt>
<trkpt lat="53.3487450" lon="18.4260060">
<ele>101</ele>
<time>2015-05-28T13:01:03Z</time>
</trkpt>
<trkpt lat="53.3487575" lon="18.4260315">
<ele>99</ele>
<time>2015-05-28T13:01:05Z</time>
</trkpt>
<trkpt lat="53.3487731" lon="18.4260623">
<ele>99</ele>
<time>2015-05-28T13:01:07Z</time>
</trkpt>
<trkpt lat="53.3487929" lon="18.4260905">
<ele>101</ele>
<time>2015-05-28T13:01:09Z</time>
</trkpt>
<trkpt lat="53.3488076" lon="18.4261274">
<ele>100</ele>
<time>2015-05-28T13:01:11Z</time>
</trkpt>
<trkpt lat="53.3488101" lon="18.4261829">
<ele>100</ele>
<time>2015-05-28T13:01:13Z</time>
</trkpt>
<trkpt lat="53.3488291" lon="18.4262226">
<ele>103</ele>
<time>2015-05-28T13:01:15Z</time>
</trkpt>
<trkpt lat="53.3488635" lon="18.4262178">
<ele>102</ele>
<time>2015-05-28T13:01:17Z</time>
</trkpt>
<trkpt lat="53.3488991" lon="18.4261949">
<ele>103</ele>
<time>2015-05-28T13:01:19Z</time>
</trkpt>
<trkpt lat="53.3489336" lon="18.4262142">
<ele>103</ele>
<time>2015-05-28T13:01:21Z</time>
</trkpt>
<trkpt lat="53.3489391" lon="18.4262574">
<ele>100</ele>
<time>2015-05-28T13:01:23Z</time>
</trkpt>
<trkpt lat="53.3489463" lon="18.4262869">
<ele>102</ele>
<time>2015-05-28T13:01:25Z</time>
</trkpt>
<trkpt lat="53.3489527" lon="18.4263220">
<ele>104</ele>
<time>2015-05-28T13:01:27Z</time>
</trkpt>
<trkpt lat="53.3489600" lon="18.4263567">
<ele>104</ele>
<time>2015-05-28T13:01:29Z</time>
</trkpt>
<trkpt lat="53.3489691" lon="18.4264124">
<ele>107</ele>
<time>2015-05-28T13:01:31Z</time>
</trkpt>
<trkpt lat="53.3489681" lon="18.4264712">
<ele>107</ele>
<time>2015-05-28T13:01:33Z</time>
</trkpt>
<trkpt lat="53.3489740" lon="18.4265072">
<ele>107</ele>
<time>2015-05-28T13:01:35Z</time>
</trkpt>
<trkpt lat="53.3489831" lon="18.4265420">
<ele>107</ele>
<time>2015-05-28T13:01:37Z</time>
</trkpt>
<trkpt lat="53.3489948" lon="18.4265674">
<ele>107</ele>
<time>2015-05-28T13:01:39Z</time>
</trkpt>
<trkpt lat="53.3489984" lon="18.4266068">
<ele>107</ele>
<time>2015-05-28T13:01:41Z</time>
</trkpt>
<trkpt lat="53.3490038" lon="18.4266475">
<ele>106</ele>
<time>2015-05-28T13:01:43Z</time>
</trkpt>
<trkpt lat="53.3490086" lon="18.4266924">
<ele>105</ele>
<time>2015-05-28T13:01:45Z</time>
</trkpt>
<trkpt lat="53.3490122" lon="18.4267353">
<ele>105</ele>
<time>2015-05-28T13:01:47Z</time>
</trkpt>
<trkpt lat="53.3490160" lon="18.4267783">
<ele>104</ele>
<time>2015-05-28T13:01:49Z</time>
</trkpt>
<trkpt lat="53.3490248" lon="18.4268084">
<ele>99</ele>
<time>2015-05-28T13:01:51Z</time>
</trkpt>
<trkpt lat="53.3490302" lon="18.4268441">
<ele>100</ele>
<time>2015-05-28T13:01:53Z</time>
</trkpt>
<trkpt lat="53.3490439" lon="18.4268695">
<ele>101</ele>
<time>2015-05-28T13:01:55Z</time>
</trkpt>
<trkpt lat="53.3490525" lon="18.4268979">
<ele>101</ele>
<time>2015-05-28T13:01:57Z</time>
</trkpt>
<trkpt lat="53.3490502" lon="18.4269452">
<ele>100</ele>
<time>2015-05-28T13:01:59Z</time>
</trkpt>
<trkpt lat="53.3490515" lon="18.4269934">
<ele>100</ele>
<time>2015-05-28T13:02:01Z</time>
</trkpt>
<trkpt lat="53.3490437" lon="18.4270417">
<ele>100</ele>
<time>2015-05-28T13:02:03Z</time>
</trkpt>
<trkpt lat="53.3490391" lon="18.4270869">
<ele>100</ele>
<time>2015-05-28T13:02:05Z</time>
</trkpt>
<trkpt lat="53.3490251" lon="18.4271407">
<ele>100</ele>
<time>2015-05-28T13:02:07Z</time>
</trkpt>
<trkpt lat="53.3490181" lon="18.4271755">
<ele>96</ele>
<time>2015-05-28T13:02:09Z</time>
</trkpt>
<trkpt lat="53.3490084" lon="18.4272203">
<ele>95</ele>
<time>2015-05-28T13:02:11Z</time>
</trkpt>
<trkpt lat="53.3490150" lon="18.4272591">
<ele>97</ele>
<time>2015-05-28T13:02:13Z</time>
</trkpt>
<trkpt lat="53.3490323" lon="18.4272878">
<ele>98</ele>
<time>2015-05-28T13:02:15Z</time>
</trkpt>
<trkpt lat="53.3490519" lon="18.4273180">
<ele>97</ele>
<time>2015-05-28T13:02:17Z</time>
</trkpt>
<trkpt lat="53.3490743" lon="18.4273456">
<ele>94</ele>
<time>2015-05-28T13:02:19Z</time>
</trkpt>
<trkpt lat="53.3491033" lon="18.4273589">
<ele>94</ele>
<time>2015-05-28T13:02:21Z</time>
</trkpt>
<trkpt lat="53.3491346" lon="18.4273715">
<ele>96</ele>
<time>2015-05-28T13:02:23Z</time>
</trkpt>
<trkpt lat="53.3491566" lon="18.4273904">
<ele>96</ele>
<time>2015-05-28T13:02:25Z</time>
</trkpt>
<trkpt lat="53.3491718" lon="18.4274219">
<ele>96</ele>
<time>2015-05-28T13:02:27Z</time>
</trkpt>
<trkpt lat="53.3491793" lon="18.4274584">
<ele>96</ele>
<time>2015-05-28T13:02:29Z</time>
</trkpt>
<trkpt lat="53.3491927" lon="18.4274943">
<ele>97</ele>
<time>2015-05-28T13:02:31Z</time>
</trkpt>
<trkpt lat="53.3492091" lon="18.4275294">
<ele>96</ele>
<time>2015-05-28T13:02:33Z</time>
</trkpt>
<trkpt lat="53.3492151" lon="18.4275699">
<ele>95</ele>
<time>2015-05-28T13:02:35Z</time>
</trkpt>
<trkpt lat="53.3492316" lon="18.4275969">
<ele>95</ele>
<time>2015-05-28T13:02:37Z</time>
</trkpt>
<trkpt lat="53.3492415" lon="18.4276328">
<ele>95</ele>
<time>2015-05-28T13:02:39Z</time>
</trkpt>
<trkpt lat="53.3492621" lon="18.4276579">
<ele>95</ele>
<time>2015-05-28T13:02:41Z</time>
</trkpt>
<trkpt lat="53.3492814" lon="18.4276882">
<ele>94</ele>
<time>2015-05-28T13:02:43Z</time>
</trkpt>
<trkpt lat="53.3493051" lon="18.4277163">
<ele>93</ele>
<time>2015-05-28T13:02:45Z</time>
</trkpt>
<trkpt lat="53.3493301" lon="18.4277397">
<ele>94</ele>
<time>2015-05-28T13:02:47Z</time>
</trkpt>
<trkpt lat="53.3493533" lon="18.4277659">
<ele>94</ele>
<time>2015-05-28T13:02:49Z</time>
</trkpt>
<trkpt lat="53.3493745" lon="18.4277823">
<ele>93</ele>
<time>2015-05-28T13:02:51Z</time>
</trkpt>
<trkpt lat="53.3493946" lon="18.4277961">
<ele>93</ele>
<time>2015-05-28T13:02:53Z</time>
</trkpt>
<trkpt lat="53.3494022" lon="18.4278331">
<ele>93</ele>
<time>2015-05-28T13:02:55Z</time>
</trkpt>
<trkpt lat="53.3494063" lon="18.4278722">
<ele>91</ele>
<time>2015-05-28T13:02:57Z</time>
</trkpt>
<trkpt lat="53.3494163" lon="18.4279048">
<ele>93</ele>
<time>2015-05-28T13:02:59Z</time>
</trkpt>
<trkpt lat="53.3494343" lon="18.4279246">
<ele>91</ele>
<time>2015-05-28T13:03:01Z</time>
</trkpt>
<trkpt lat="53.3494561" lon="18.4279407">
<ele>91</ele>
<time>2015-05-28T13:03:03Z</time>
</trkpt>
<trkpt lat="53.3494561" lon="18.4279840">
<ele>96</ele>
<time>2015-05-28T13:03:05Z</time>
</trkpt>
<trkpt lat="53.3494521" lon="18.4280362">
<ele>97</ele>
<time>2015-05-28T13:03:07Z</time>
</trkpt>
<trkpt lat="53.3494563" lon="18.4280816">
<ele>96</ele>
<time>2015-05-28T13:03:09Z</time>
</trkpt>
<trkpt lat="53.3494706" lon="18.4281183">
<ele>99</ele>
<time>2015-05-28T13:03:11Z</time>
</trkpt>
<trkpt lat="53.3494974" lon="18.4281495">
<ele>96</ele>
<time>2015-05-28T13:03:13Z</time>
</trkpt>
<trkpt lat="53.3495155" lon="18.4281989">
<ele>96</ele>
<time>2015-05-28T13:03:15Z</time>
</trkpt>
<trkpt lat="53.3495000" lon="18.4282766">
<ele>97</ele>
<time>2015-05-28T13:03:17Z</time>
</trkpt>
<trkpt lat="53.3495026" lon="18.4283357">
<ele>97</ele>
<time>2015-05-28T13:03:19Z</time>
</trkpt>
<trkpt lat="53.3495184" lon="18.4283751">
<ele>98</ele>
<time>2015-05-28T13:03:21Z</time>
</trkpt>
<trkpt lat="53.3495296" lon="18.4284041">
<ele>97</ele>
<time>2015-05-28T13:03:23Z</time>
</trkpt>
<trkpt lat="53.3495452" lon="18.4284260">
<ele>95</ele>
<time>2015-05-28T13:03:25Z</time>
</trkpt>
<trkpt lat="53.3495583" lon="18.4284556">
<ele>95</ele>
<time>2015-05-28T13:03:27Z</time>
</trkpt>
<trkpt lat="53.3495733" lon="18.4284919">
<ele>96</ele>
<time>2015-05-28T13:03:29Z</time>
</trkpt>
<trkpt lat="53.3496008" lon="18.4285107">
<ele>97</ele>
<time>2015-05-28T13:03:31Z</time>
</trkpt>
<trkpt lat="53.3496158" lon="18.4285435">
<ele>97</ele>
<time>2015-05-28T13:03:33Z</time>
</trkpt>
<trkpt lat="53.3496300" lon="18.4285906">
<ele>97</ele>
<time>2015-05-28T13:03:35Z</time>
</trkpt>
<trkpt lat="53.3496486" lon="18.4286420">
<ele>99</ele>
<time>2015-05-28T13:03:37Z</time>
</trkpt>
<trkpt lat="53.3496623" lon="18.4286429">
<ele>98</ele>
<time>2015-05-28T13:03:39Z</time>
</trkpt>
<trkpt lat="53.3496779" lon="18.4286568">
<ele>98</ele>
<time>2015-05-28T13:03:41Z</time>
</trkpt>
<trkpt lat="53.3496659" lon="18.4287054">
<ele>98</ele>
<time>2015-05-28T13:03:43Z</time>
</trkpt>
<trkpt lat="53.3496625" lon="18.4287295">
<ele>98</ele>
<time>2015-05-28T13:03:45Z</time>
</trkpt>
<trkpt lat="53.3496682" lon="18.4287503">
<ele>97</ele>
<time>2015-05-28T13:03:47Z</time>
</trkpt>
<trkpt lat="53.3496739" lon="18.4287841">
<ele>95</ele>
<time>2015-05-28T13:03:49Z</time>
</trkpt>
<trkpt lat="53.3496829" lon="18.4288157">
<ele>96</ele>
<time>2015-05-28T13:03:51Z</time>
</trkpt>
<trkpt lat="53.3496825" lon="18.4288591">
<ele>96</ele>
<time>2015-05-28T13:03:53Z</time>
</trkpt>
<trkpt lat="53.3496775" lon="18.4289175">
<ele>96</ele>
<time>2015-05-28T13:03:55Z</time>
</trkpt>
<trkpt lat="53.3496745" lon="18.4289818">
<ele>94</ele>
<time>2015-05-28T13:03:57Z</time>
</trkpt>
<trkpt lat="53.3496707" lon="18.4290326">
<ele>95</ele>
<time>2015-05-28T13:03:59Z</time>
</trkpt>
<trkpt lat="53.3496731" lon="18.4290699">
<ele>99</ele>
<time>2015-05-28T13:04:01Z</time>
</trkpt>
<trkpt lat="53.3496972" lon="18.4290916">
<ele>95</ele>
<time>2015-05-28T13:04:03Z</time>
</trkpt>
<trkpt lat="53.3497261" lon="18.4290981">
<ele>90</ele>
<time>2015-05-28T13:04:05Z</time>
</trkpt>
<trkpt lat="53.3497560" lon="18.4291003">
<ele>89</ele>
<time>2015-05-28T13:04:07Z</time>
</trkpt>
<trkpt lat="53.3497739" lon="18.4291137">
<ele>88</ele>
<time>2015-05-28T13:04:09Z</time>
</trkpt>
<trkpt lat="53.3497951" lon="18.4291319">
<ele>92</ele>
<time>2015-05-28T13:04:11Z</time>
</trkpt>
<trkpt lat="53.3498231" lon="18.4291465">
<ele>95</ele>
<time>2015-05-28T13:04:13Z</time>
</trkpt>
<trkpt lat="53.3498497" lon="18.4291618">
<ele>94</ele>
<time>2015-05-28T13:04:15Z</time>
</trkpt>
<trkpt lat="53.3498758" lon="18.4291874">
<ele>97</ele>
<time>2015-05-28T13:04:17Z</time>
</trkpt>
<trkpt lat="53.3498937" lon="18.4292250">
<ele>97</ele>
<time>2015-05-28T13:04:19Z</time>
</trkpt>
<trkpt lat="53.3499187" lon="18.4292590">
<ele>96</ele>
<time>2015-05-28T13:04:21Z</time>
</trkpt>
<trkpt lat="53.3499483" lon="18.4292828">
<ele>95</ele>
<time>2015-05-28T13:04:23Z</time>
</trkpt>
<trkpt lat="53.3499714" lon="18.4293079">
<ele>93</ele>
<time>2015-05-28T13:04:25Z</time>
</trkpt>
<trkpt lat="53.3499766" lon="18.4293259">
<ele>91</ele>
<time>2015-05-28T13:04:27Z</time>
</trkpt>
<trkpt lat="53.3499826" lon="18.4293230">
<ele>92</ele>
<time>2015-05-28T13:04:29Z</time>
</trkpt>
<trkpt lat="53.3499851" lon="18.4293317">
<ele>91</ele>
<time>2015-05-28T13:04:31Z</time>
</trkpt>
<trkpt lat="53.3499976" lon="18.4293317">
<ele>94</ele>
<time>2015-05-28T13:04:33Z</time>
</trkpt>
<trkpt lat="53.3499918" lon="18.4293423">
<ele>94</ele>
<time>2015-05-28T13:04:35Z</time>
</trkpt>
<trkpt lat="53.3499935" lon="18.4293467">
<ele>95</ele>
<time>2015-05-28T13:04:37Z</time>
</trkpt>
<trkpt lat="53.3499956" lon="18.4293393">
<ele>97</ele>
<time>2015-05-28T13:04:39Z</time>
</trkpt>
<trkpt lat="53.3499881" lon="18.4293666">
<ele>99</ele>
<time>2015-05-28T13:04:41Z</time>
</trkpt>
<trkpt lat="53.3499783" lon="18.4293857">
<ele>101</ele>
<time>2015-05-28T13:04:43Z</time>
</trkpt>
<trkpt lat="53.3499724" lon="18.4293963">
<ele>100</ele>
<time>2015-05-28T13:04:45Z</time>
</trkpt>
<trkpt lat="53.3499733" lon="18.4294139">
<ele>103</ele>
<time>2015-05-28T13:04:47Z</time>
</trkpt>
<trkpt lat="53.3499847" lon="18.4294211">
<ele>101</ele>
<time>2015-05-28T13:04:49Z</time>
</trkpt>
<trkpt lat="53.3499828" lon="18.4294303">
<ele>100</ele>
<time>2015-05-28T13:04:51Z</time>
</trkpt>
<trkpt lat="53.3499660" lon="18.4294561">
<ele>101</ele>
<time>2015-05-28T13:04:53Z</time>
</trkpt>
<trkpt lat="53.3499636" lon="18.4294707">
<ele>102</ele>
<time>2015-05-28T13:04:55Z</time>
</trkpt>
<trkpt lat="53.3499597" lon="18.4294928">
<ele>103</ele>
<time>2015-05-28T13:04:57Z</time>
</trkpt>
<trkpt lat="53.3499614" lon="18.4295080">
<ele>105</ele>
<time>2015-05-28T13:04:59Z</time>
</trkpt>
<trkpt lat="53.349948" lon="18.4295395">
<ele>104</ele>
<time>2015-05-28T13:05:01Z</time>
</trkpt>
<trkpt lat="53.3499337" lon="18.4295822">
<ele>104</ele>
<time>2015-05-28T13:05:03Z</time>
</trkpt>
<trkpt lat="53.3499278" lon="18.4296180">
<ele>104</ele>
<time>2015-05-28T13:05:05Z</time>
</trkpt>
<trkpt lat="53.3499387" lon="18.4296429">
<ele>105</ele>
<time>2015-05-28T13:05:07Z</time>
</trkpt>
<trkpt lat="53.3499404" lon="18.4296787">
<ele>105</ele>
<time>2015-05-28T13:05:09Z</time>
</trkpt>
<trkpt lat="53.3499420" lon="18.4297063">
<ele>106</ele>
<time>2015-05-28T13:05:11Z</time>
</trkpt>
<trkpt lat="53.3499526" lon="18.4297379">
<ele>103</ele>
<time>2015-05-28T13:05:13Z</time>
</trkpt>
<trkpt lat="53.3499769" lon="18.4297696">
<ele>103</ele>
<time>2015-05-28T13:05:15Z</time>
</trkpt>
<trkpt lat="53.3499999" lon="18.4298027">
<ele>102</ele>
<time>2015-05-28T13:05:17Z</time>
</trkpt>
<trkpt lat="53.3500297" lon="18.4298148">
<ele>101</ele>
<time>2015-05-28T13:05:19Z</time>
</trkpt>
<trkpt lat="53.3500660" lon="18.4298170">
<ele>98</ele>
<time>2015-05-28T13:05:21Z</time>
</trkpt>
<trkpt lat="53.3501082" lon="18.4297975">
<ele>96</ele>
<time>2015-05-28T13:05:23Z</time>
</trkpt>
<trkpt lat="53.3501511" lon="18.4297800">
<ele>96</ele>
<time>2015-05-28T13:05:25Z</time>
</trkpt>
<trkpt lat="53.3501890" lon="18.4297863">
<ele>97</ele>
<time>2015-05-28T13:05:27Z</time>
</trkpt>
<trkpt lat="53.3502269" lon="18.4298070">
<ele>95</ele>
<time>2015-05-28T13:05:29Z</time>
</trkpt>
<trkpt lat="53.3502656" lon="18.4297993">
<ele>93</ele>
<time>2015-05-28T13:05:31Z</time>
</trkpt>
<trkpt lat="53.3503054" lon="18.4297882">
<ele>88</ele>
<time>2015-05-28T13:05:33Z</time>
</trkpt>
<trkpt lat="53.3503472" lon="18.4297807">
<ele>88</ele>
<time>2015-05-28T13:05:35Z</time>
</trkpt>
<trkpt lat="53.3503898" lon="18.4297880">
<ele>80</ele>
<time>2015-05-28T13:05:37Z</time>
</trkpt>
<trkpt lat="53.3504268" lon="18.4297862">
<ele>79</ele>
<time>2015-05-28T13:05:39Z</time>
</trkpt>
<trkpt lat="53.3504512" lon="18.4297695">
<ele>78</ele>
<time>2015-05-28T13:05:41Z</time>
</trkpt>
<trkpt lat="53.3504740" lon="18.4297678">
<ele>80</ele>
<time>2015-05-28T13:05:43Z</time>
</trkpt>
<trkpt lat="53.3504913" lon="18.4297777">
<ele>82</ele>
<time>2015-05-28T13:05:45Z</time>
</trkpt>
<trkpt lat="53.3505138" lon="18.4297802">
<ele>79</ele>
<time>2015-05-28T13:05:47Z</time>
</trkpt>
<trkpt lat="53.3505360" lon="18.4297780">
<ele>81</ele>
<time>2015-05-28T13:05:49Z</time>
</trkpt>
<trkpt lat="53.3505526" lon="18.4297890">
<ele>81</ele>
<time>2015-05-28T13:05:51Z</time>
</trkpt>
<trkpt lat="53.3505595" lon="18.4298152">
<ele>83</ele>
<time>2015-05-28T13:05:53Z</time>
</trkpt>
<trkpt lat="53.350568" lon="18.4298500">
<ele>85</ele>
<time>2015-05-28T13:05:55Z</time>
</trkpt>
<trkpt lat="53.3505780" lon="18.4298741">
<ele>85</ele>
<time>2015-05-28T13:05:57Z</time>
</trkpt>
<trkpt lat="53.3505783" lon="18.4299011">
<ele>86</ele>
<time>2015-05-28T13:05:59Z</time>
</trkpt>
<trkpt lat="53.3505801" lon="18.4299089">
<ele>86</ele>
<time>2015-05-28T13:06:01Z</time>
</trkpt>
<trkpt lat="53.3505871" lon="18.4299170">
<ele>87</ele>
<time>2015-05-28T13:06:03Z</time>
</trkpt>
<trkpt lat="53.3506014" lon="18.4299343">
<ele>88</ele>
<time>2015-05-28T13:06:05Z</time>
</trkpt>
<trkpt lat="53.3506267" lon="18.4299364">
<ele>88</ele>
<time>2015-05-28T13:06:07Z</time>
</trkpt>
<trkpt lat="53.3506399" lon="18.4299647">
<ele>89</ele>
<time>2015-05-28T13:06:09Z</time>
</trkpt>
<trkpt lat="53.3506421" lon="18.4300412">
<ele>96</ele>
<time>2015-05-28T13:06:13Z</time>
</trkpt>
<trkpt lat="53.3506423" lon="18.4300713">
<ele>94</ele>
<time>2015-05-28T13:06:15Z</time>
</trkpt>
<trkpt lat="53.3506398" lon="18.4301097">
<ele>96</ele>
<time>2015-05-28T13:06:17Z</time>
</trkpt>
<trkpt lat="53.3506346" lon="18.4301417">
<ele>97</ele>
<time>2015-05-28T13:06:19Z</time>
</trkpt>
<trkpt lat="53.3506424" lon="18.4301600">
<ele>95</ele>
<time>2015-05-28T13:06:21Z</time>
</trkpt>
<trkpt lat="53.3506576" lon="18.4301785">
<ele>95</ele>
<time>2015-05-28T13:06:23Z</time>
</trkpt>
<trkpt lat="53.3506596" lon="18.4302026">
<ele>100</ele>
<time>2015-05-28T13:06:25Z</time>
</trkpt>
<trkpt lat="53.3506693" lon="18.4302268">
<ele>100</ele>
<time>2015-05-28T13:06:27Z</time>
</trkpt>
<trkpt lat="53.3506713" lon="18.4302529">
<ele>100</ele>
<time>2015-05-28T13:06:29Z</time>
</trkpt>
<trkpt lat="53.3506736" lon="18.4302791">
<ele>99</ele>
<time>2015-05-28T13:06:31Z</time>
</trkpt>
<trkpt lat="53.3506716" lon="18.4303056">
<ele>99</ele>
<time>2015-05-28T13:06:33Z</time>
</trkpt>
<trkpt lat="53.3506753" lon="18.4303273">
<ele>98</ele>
<time>2015-05-28T13:06:35Z</time>
</trkpt>
<trkpt lat="53.3506590" lon="18.4303397">
<ele>97</ele>
<time>2015-05-28T13:06:37Z</time>
</trkpt>
<trkpt lat="53.3506510" lon="18.4303615">
<ele>95</ele>
<time>2015-05-28T13:06:39Z</time>
</trkpt>
<trkpt lat="53.3506447" lon="18.4304008">
<ele>95</ele>
<time>2015-05-28T13:06:41Z</time>
</trkpt>
<trkpt lat="53.3506367" lon="18.4304373">
<ele>98</ele>
<time>2015-05-28T13:06:43Z</time>
</trkpt>
<trkpt lat="53.3506389" lon="18.4304680">
<ele>97</ele>
<time>2015-05-28T13:06:45Z</time>
</trkpt>
<trkpt lat="53.3506429" lon="18.4304939">
<ele>96</ele>
<time>2015-05-28T13:06:47Z</time>
</trkpt>
<trkpt lat="53.3506684" lon="18.430519">
<ele>95</ele>
<time>2015-05-28T13:06:49Z</time>
</trkpt>
<trkpt lat="53.3506823" lon="18.4305556">
<ele>95</ele>
<time>2015-05-28T13:06:51Z</time>
</trkpt>
<trkpt lat="53.3506762" lon="18.4306117">
<ele>95</ele>
<time>2015-05-28T13:06:53Z</time>
</trkpt>
<trkpt lat="53.3506793" lon="18.4306546">
<ele>97</ele>
<time>2015-05-28T13:06:55Z</time>
</trkpt>
<trkpt lat="53.3506737" lon="18.4306937">
<ele>97</ele>
<time>2015-05-28T13:06:57Z</time>
</trkpt>
<trkpt lat="53.3506748" lon="18.4307236">
<ele>94</ele>
<time>2015-05-28T13:06:59Z</time>
</trkpt>
<trkpt lat="53.3506798" lon="18.4307618">
<ele>99</ele>
<time>2015-05-28T13:07:01Z</time>
</trkpt>
<trkpt lat="53.3506782" lon="18.4308017">
<ele>101</ele>
<time>2015-05-28T13:07:03Z</time>
</trkpt>
<trkpt lat="53.3506723" lon="18.4308159">
<ele>100</ele>
<time>2015-05-28T13:07:05Z</time>
</trkpt>
<trkpt lat="53.3506748" lon="18.4308231">
<ele>98</ele>
<time>2015-05-28T13:07:07Z</time>
</trkpt>
<trkpt lat="53.3506665" lon="18.4308461">
<ele>97</ele>
<time>2015-05-28T13:07:09Z</time>
</trkpt>
<trkpt lat="53.3506662" lon="18.4308726">
<ele>98</ele>
<time>2015-05-28T13:07:11Z</time>
</trkpt>
<trkpt lat="53.3506701" lon="18.4308909">
<ele>99</ele>
<time>2015-05-28T13:07:13Z</time>
</trkpt>
<trkpt lat="53.3506625" lon="18.4309217">
<ele>97</ele>
<time>2015-05-28T13:07:15Z</time>
</trkpt>
<trkpt lat="53.3506417" lon="18.4309560">
<ele>97</ele>
<time>2015-05-28T13:07:17Z</time>
</trkpt>
<trkpt lat="53.3506382" lon="18.4309983">
<ele>99</ele>
<time>2015-05-28T13:07:19Z</time>
</trkpt>
<trkpt lat="53.3506497" lon="18.4310314">
<ele>97</ele>
<time>2015-05-28T13:07:21Z</time>
</trkpt>
<trkpt lat="53.3506569" lon="18.4310621">
<ele>96</ele>
<time>2015-05-28T13:07:23Z</time>
</trkpt>
<trkpt lat="53.3506670" lon="18.4310810">
<ele>93</ele>
<time>2015-05-28T13:07:25Z</time>
</trkpt>
<trkpt lat="53.3506716" lon="18.4311063">
<ele>93</ele>
<time>2015-05-28T13:07:27Z</time>
</trkpt>
<trkpt lat="53.3506809" lon="18.4311389">
<ele>94</ele>
<time>2015-05-28T13:07:29Z</time>
</trkpt>
<trkpt lat="53.3506779" lon="18.4311669">
<ele>93</ele>
<time>2015-05-28T13:07:31Z</time>
</trkpt>
<trkpt lat="53.3506748" lon="18.4312135">
<ele>96</ele>
<time>2015-05-28T13:07:33Z</time>
</trkpt>
<trkpt lat="53.3506647" lon="18.4312459">
<ele>97</ele>
<time>2015-05-28T13:07:35Z</time>
</trkpt>
<trkpt lat="53.3506708" lon="18.4312726">
<ele>97</ele>
<time>2015-05-28T13:07:37Z</time>
</trkpt>
<trkpt lat="53.3506757" lon="18.4312935">
<ele>95</ele>
<time>2015-05-28T13:07:39Z</time>
</trkpt>
<trkpt lat="53.3506791" lon="18.4313188">
<ele>92</ele>
<time>2015-05-28T13:07:41Z</time>
</trkpt>
<trkpt lat="53.3506582" lon="18.4313518">
<ele>92</ele>
<time>2015-05-28T13:07:43Z</time>
</trkpt>
<trkpt lat="53.3506419" lon="18.4313905">
<ele>93</ele>
<time>2015-05-28T13:07:45Z</time>
</trkpt>
<trkpt lat="53.3506392" lon="18.4314303">
<ele>95</ele>
<time>2015-05-28T13:07:47Z</time>
</trkpt>
<trkpt lat="53.3506293" lon="18.4314697">
<ele>92</ele>
<time>2015-05-28T13:07:49Z</time>
</trkpt>
<trkpt lat="53.3506275" lon="18.4315077">
<ele>92</ele>
<time>2015-05-28T13:07:51Z</time>
</trkpt>
<trkpt lat="53.3506189" lon="18.4315450">
<ele>93</ele>
<time>2015-05-28T13:07:53Z</time>
</trkpt>
<trkpt lat="53.3506116" lon="18.4315798">
<ele>95</ele>
<time>2015-05-28T13:07:55Z</time>
</trkpt>
<trkpt lat="53.3506061" lon="18.4316226">
<ele>94</ele>
<time>2015-05-28T13:07:57Z</time>
</trkpt>
<trkpt lat="53.3505842" lon="18.4316604">
<ele>91</ele>
<time>2015-05-28T13:07:59Z</time>
</trkpt>
<trkpt lat="53.3505565" lon="18.4316997">
<ele>89</ele>
<time>2015-05-28T13:08:01Z</time>
</trkpt>
<trkpt lat="53.3505405" lon="18.4317328">
<ele>87</ele>
<time>2015-05-28T13:08:03Z</time>
</trkpt>
<trkpt lat="53.3505219" lon="18.4317640">
<ele>90</ele>
<time>2015-05-28T13:08:05Z</time>
</trkpt>
<trkpt lat="53.3505142" lon="18.4317947">
<ele>89</ele>
<time>2015-05-28T13:08:07Z</time>
</trkpt>
<trkpt lat="53.3505182" lon="18.4318280">
<ele>93</ele>
<time>2015-05-28T13:08:09Z</time>
</trkpt>
<trkpt lat="53.3504916" lon="18.4318580">
<ele>83</ele>
<time>2015-05-28T13:08:11Z</time>
</trkpt>
<trkpt lat="53.3504620" lon="18.4318824">
<ele>83</ele>
<time>2015-05-28T13:08:13Z</time>
</trkpt>
<trkpt lat="53.3504440" lon="18.4319117">
<ele>84</ele>
<time>2015-05-28T13:08:15Z</time>
</trkpt>
<trkpt lat="53.3504352" lon="18.4319434">
<ele>84</ele>
<time>2015-05-28T13:08:17Z</time>
</trkpt>
<trkpt lat="53.3504347" lon="18.4319777">
<ele>84</ele>
<time>2015-05-28T13:08:19Z</time>
</trkpt>
<trkpt lat="53.3504404" lon="18.4320161">
<ele>84</ele>
<time>2015-05-28T13:08:21Z</time>
</trkpt>
<trkpt lat="53.3504425" lon="18.4320559">
<ele>83</ele>
<time>2015-05-28T13:08:23Z</time>
</trkpt>
<trkpt lat="53.3504468" lon="18.4321012">
<ele>84</ele>
<time>2015-05-28T13:08:25Z</time>
</trkpt>
<trkpt lat="53.3504574" lon="18.4321492">
<ele>86</ele>
<time>2015-05-28T13:08:27Z</time>
</trkpt>
<trkpt lat="53.3504590" lon="18.4321891">
<ele>87</ele>
<time>2015-05-28T13:08:29Z</time>
</trkpt>
<trkpt lat="53.3504502" lon="18.4322112">
<ele>87</ele>
<time>2015-05-28T13:08:31Z</time>
</trkpt>
<trkpt lat="53.3504407" lon="18.4322240">
<ele>89</ele>
<time>2015-05-28T13:08:33Z</time>
</trkpt>
<trkpt lat="53.3504461" lon="18.4322530">
<ele>89</ele>
<time>2015-05-28T13:08:35Z</time>
</trkpt>
<trkpt lat="53.3504585" lon="18.4322991">
<ele>92</ele>
<time>2015-05-28T13:08:37Z</time>
</trkpt>
<trkpt lat="53.3504667" lon="18.4323522">
<ele>95</ele>
<time>2015-05-28T13:08:39Z</time>
</trkpt>
<trkpt lat="53.3504805" lon="18.4324086">
<ele>90</ele>
<time>2015-05-28T13:08:41Z</time>
</trkpt>
<trkpt lat="53.3504945" lon="18.4324676">
<ele>88</ele>
<time>2015-05-28T13:08:43Z</time>
</trkpt>
<trkpt lat="53.3505021" lon="18.4325196">
<ele>87</ele>
<time>2015-05-28T13:08:45Z</time>
</trkpt>
<trkpt lat="53.3505045" lon="18.4325672">
<ele>89</ele>
<time>2015-05-28T13:08:47Z</time>
</trkpt>
<trkpt lat="53.3505126" lon="18.4326127">
<ele>89</ele>
<time>2015-05-28T13:08:49Z</time>
</trkpt>
<trkpt lat="53.3505117" lon="18.4326434">
<ele>88</ele>
<time>2015-05-28T13:08:51Z</time>
</trkpt>
<trkpt lat="53.3504896" lon="18.4326730">
<ele>86</ele>
<time>2015-05-28T13:08:53Z</time>
</trkpt>
<trkpt lat="53.3504685" lon="18.4327025">
<ele>89</ele>
<time>2015-05-28T13:08:55Z</time>
</trkpt>
<trkpt lat="53.3504530" lon="18.4327340">
<ele>90</ele>
<time>2015-05-28T13:08:57Z</time>
</trkpt>
<trkpt lat="53.3504459" lon="18.4327595">
<ele>90</ele>
<time>2015-05-28T13:08:59Z</time>
</trkpt>
<trkpt lat="53.3504382" lon="18.4327879">
<ele>90</ele>
<time>2015-05-28T13:09:01Z</time>
</trkpt>
<trkpt lat="53.3504237" lon="18.4328321">
<ele>90</ele>
<time>2015-05-28T13:09:03Z</time>
</trkpt>
<trkpt lat="53.3504233" lon="18.4328817">
<ele>87</ele>
<time>2015-05-28T13:09:05Z</time>
</trkpt>
<trkpt lat="53.3504245" lon="18.4329320">
<ele>89</ele>
<time>2015-05-28T13:09:07Z</time>
</trkpt>
<trkpt lat="53.3504377" lon="18.4329760">
<ele>90</ele>
<time>2015-05-28T13:09:09Z</time>
</trkpt>
<trkpt lat="53.3504391" lon="18.4330027">
<ele>88</ele>
<time>2015-05-28T13:09:11Z</time>
</trkpt>
<trkpt lat="53.3504394" lon="18.4330044">
<ele>89</ele>
<time>2015-05-28T13:09:13Z</time>
</trkpt>
<trkpt lat="53.3504393" lon="18.4329996">
<ele>87</ele>
<time>2015-05-28T13:09:15Z</time>
</trkpt>
<trkpt lat="53.3504339" lon="18.4330208">
<ele>88</ele>
<time>2015-05-28T13:09:17Z</time>
</trkpt>
<trkpt lat="53.3504302" lon="18.4330503">
<ele>91</ele>
<time>2015-05-28T13:09:19Z</time>
</trkpt>
<trkpt lat="53.3504420" lon="18.4330894">
<ele>89</ele>
<time>2015-05-28T13:09:21Z</time>
</trkpt>
<trkpt lat="53.3504484" lon="18.4331216">
<ele>85</ele>
<time>2015-05-28T13:09:23Z</time>
</trkpt>
<trkpt lat="53.3504366" lon="18.4331468">
<ele>85</ele>
<time>2015-05-28T13:09:25Z</time>
</trkpt>
<trkpt lat="53.3504134" lon="18.4331633">
<ele>83</ele>
<time>2015-05-28T13:09:27Z</time>
</trkpt>
<trkpt lat="53.3503878" lon="18.4331919">
<ele>84</ele>
<time>2015-05-28T13:09:29Z</time>
</trkpt>
<trkpt lat="53.3503601" lon="18.4332445">
<ele>83</ele>
<time>2015-05-28T13:09:31Z</time>
</trkpt>
<trkpt lat="53.3503500" lon="18.4332906">
<ele>86</ele>
<time>2015-05-28T13:09:33Z</time>
</trkpt>
<trkpt lat="53.3503388" lon="18.4333314">
<ele>87</ele>
<time>2015-05-28T13:09:35Z</time>
</trkpt>
<trkpt lat="53.3503345" lon="18.4333721">
<ele>92</ele>
<time>2015-05-28T13:09:37Z</time>
</trkpt>
<trkpt lat="53.3503303" lon="18.4334148">
<ele>86</ele>
<time>2015-05-28T13:09:39Z</time>
</trkpt>
<trkpt lat="53.3503210" lon="18.4334532">
<ele>89</ele>
<time>2015-05-28T13:09:41Z</time>
</trkpt>
<trkpt lat="53.3503130" lon="18.4334772">
<ele>87</ele>
<time>2015-05-28T13:09:43Z</time>
</trkpt>
<trkpt lat="53.3503083" lon="18.4335087">
<ele>89</ele>
<time>2015-05-28T13:09:45Z</time>
</trkpt>
<trkpt lat="53.3502943" lon="18.4335390">
<ele>89</ele>
<time>2015-05-28T13:09:47Z</time>
</trkpt>
<trkpt lat="53.3502692" lon="18.4335578">
<ele>87</ele>
<time>2015-05-28T13:09:49Z</time>
</trkpt>
<trkpt lat="53.3502555" lon="18.4335940">
<ele>92</ele>
<time>2015-05-28T13:09:51Z</time>
</trkpt>
<trkpt lat="53.3502513" lon="18.4336252">
<ele>89</ele>
<time>2015-05-28T13:09:53Z</time>
</trkpt>
<trkpt lat="53.3502480" lon="18.4336532">
<ele>94</ele>
<time>2015-05-28T13:09:55Z</time>
</trkpt>
<trkpt lat="53.3502299" lon="18.4336909">
<ele>92</ele>
<time>2015-05-28T13:09:57Z</time>
</trkpt>
<trkpt lat="53.3502271" lon="18.4337403">
<ele>96</ele>
<time>2015-05-28T13:09:59Z</time>
</trkpt>
<trkpt lat="53.3502316" lon="18.4337872">
<ele>94</ele>
<time>2015-05-28T13:10:01Z</time>
</trkpt>
<trkpt lat="53.3502212" lon="18.4338302">
<ele>92</ele>
<time>2015-05-28T13:10:03Z</time>
</trkpt>
<trkpt lat="53.3502089" lon="18.4338639">
<ele>94</ele>
<time>2015-05-28T13:10:05Z</time>
</trkpt>
<trkpt lat="53.3502123" lon="18.4338887">
<ele>93</ele>
<time>2015-05-28T13:10:07Z</time>
</trkpt>
<trkpt lat="53.3502173" lon="18.4339305">
<ele>95</ele>
<time>2015-05-28T13:10:09Z</time>
</trkpt>
<trkpt lat="53.3502208" lon="18.4339757">
<ele>98</ele>
<time>2015-05-28T13:10:11Z</time>
</trkpt>
<trkpt lat="53.3502169" lon="18.4340164">
<ele>103</ele>
<time>2015-05-28T13:10:13Z</time>
</trkpt>
<trkpt lat="53.3502208" lon="18.4340670">
<ele>105</ele>
<time>2015-05-28T13:10:15Z</time>
</trkpt>
<trkpt lat="53.3502304" lon="18.4341217">
<ele>107</ele>
<time>2015-05-28T13:10:17Z</time>
</trkpt>
<trkpt lat="53.35024" lon="18.4341659">
<ele>109</ele>
<time>2015-05-28T13:10:19Z</time>
</trkpt>
<trkpt lat="53.3502337" lon="18.4342003">
<ele>110</ele>
<time>2015-05-28T13:10:21Z</time>
</trkpt>
<trkpt lat="53.3502220" lon="18.4342369">
<ele>114</ele>
<time>2015-05-28T13:10:23Z</time>
</trkpt>
<trkpt lat="53.3502067" lon="18.4342848">
<ele>115</ele>
<time>2015-05-28T13:10:25Z</time>
</trkpt>
<trkpt lat="53.3501921" lon="18.4343235">
<ele>117</ele>
<time>2015-05-28T13:10:27Z</time>
</trkpt>
<trkpt lat="53.3501661" lon="18.4343524">
<ele>118</ele>
<time>2015-05-28T13:10:29Z</time>
</trkpt>
<trkpt lat="53.3501444" lon="18.4343853">
<ele>122</ele>
<time>2015-05-28T13:10:31Z</time>
</trkpt>
<trkpt lat="53.3501703" lon="18.4344176">
<ele>115</ele>
<time>2015-05-28T13:10:33Z</time>
</trkpt>
<trkpt lat="53.3502311" lon="18.4344685">
<ele>116</ele>
<time>2015-05-28T13:10:35Z</time>
</trkpt>
<trkpt lat="53.3502954" lon="18.4344881">
<ele>112</ele>
<time>2015-05-28T13:10:37Z</time>
</trkpt>
<trkpt lat="53.3502959" lon="18.4345341">
<ele>112</ele>
<time>2015-05-28T13:10:39Z</time>
</trkpt>
<trkpt lat="53.3502695" lon="18.4345700">
<ele>110</ele>
<time>2015-05-28T13:10:41Z</time>
</trkpt>
<trkpt lat="53.3502381" lon="18.4346092">
<ele>110</ele>
<time>2015-05-28T13:10:43Z</time>
</trkpt>
<trkpt lat="53.3502107" lon="18.4346544">
<ele>110</ele>
<time>2015-05-28T13:10:45Z</time>
</trkpt>
<trkpt lat="53.3501961" lon="18.4346946">
<ele>109</ele>
<time>2015-05-28T13:10:47Z</time>
</trkpt>
<trkpt lat="53.3501731" lon="18.4347224">
<ele>109</ele>
<time>2015-05-28T13:10:49Z</time>
</trkpt>
<trkpt lat="53.3501470" lon="18.4347441">
<ele>111</ele>
<time>2015-05-28T13:10:51Z</time>
</trkpt>
<trkpt lat="53.3501332" lon="18.4347811">
<ele>109</ele>
<time>2015-05-28T13:10:53Z</time>
</trkpt>
<trkpt lat="53.3501321" lon="18.4348245">
<ele>111</ele>
<time>2015-05-28T13:10:55Z</time>
</trkpt>
<trkpt lat="53.3501233" lon="18.4348594">
<ele>110</ele>
<time>2015-05-28T13:10:57Z</time>
</trkpt>
<trkpt lat="53.3501085" lon="18.4348836">
<ele>108</ele>
<time>2015-05-28T13:10:59Z</time>
</trkpt>
<trkpt lat="53.3500994" lon="18.4349156">
<ele>106</ele>
<time>2015-05-28T13:11:01Z</time>
</trkpt>
<trkpt lat="53.3500857" lon="18.4349488">
<ele>103</ele>
<time>2015-05-28T13:11:03Z</time>
</trkpt>
<trkpt lat="53.3500668" lon="18.4349770">
<ele>101</ele>
<time>2015-05-28T13:11:05Z</time>
</trkpt>
<trkpt lat="53.3500464" lon="18.4350148">
<ele>103</ele>
<time>2015-05-28T13:11:07Z</time>
</trkpt>
<trkpt lat="53.3500144" lon="18.4350647">
<ele>104</ele>
<time>2015-05-28T13:11:09Z</time>
</trkpt>
<trkpt lat="53.3499968" lon="18.4351082">
<ele>104</ele>
<time>2015-05-28T13:11:11Z</time>
</trkpt>
<trkpt lat="53.3499923" lon="18.4351489">
<ele>105</ele>
<time>2015-05-28T13:11:13Z</time>
</trkpt>
<trkpt lat="53.3499729" lon="18.4351826">
<ele>104</ele>
<time>2015-05-28T13:11:15Z</time>
</trkpt>
<trkpt lat="53.349953" lon="18.4352190">
<ele>104</ele>
<time>2015-05-28T13:11:17Z</time>
</trkpt>
<trkpt lat="53.3499370" lon="18.4352392">
<ele>105</ele>
<time>2015-05-28T13:11:19Z</time>
</trkpt>
<trkpt lat="53.3499264" lon="18.4352503">
<ele>101</ele>
<time>2015-05-28T13:11:21Z</time>
</trkpt>
<trkpt lat="53.3499187" lon="18.4352697">
<ele>101</ele>
<time>2015-05-28T13:11:23Z</time>
</trkpt>
<trkpt lat="53.3499134" lon="18.4352986">
<ele>100</ele>
<time>2015-05-28T13:11:25Z</time>
</trkpt>
<trkpt lat="53.3499078" lon="18.4353535">
<ele>102</ele>
<time>2015-05-28T13:11:27Z</time>
</trkpt>
<trkpt lat="53.3498906" lon="18.4354150">
<ele>97</ele>
<time>2015-05-28T13:11:29Z</time>
</trkpt>
<trkpt lat="53.3498667" lon="18.4354676">
<ele>96</ele>
<time>2015-05-28T13:11:31Z</time>
</trkpt>
<trkpt lat="53.3498215" lon="18.4355149">
<ele>98</ele>
<time>2015-05-28T13:11:33Z</time>
</trkpt>
<trkpt lat="53.3497622" lon="18.4355688">
<ele>101</ele>
<time>2015-05-28T13:11:35Z</time>
</trkpt>
<trkpt lat="53.3497189" lon="18.4356198">
<ele>100</ele>
<time>2015-05-28T13:11:37Z</time>
</trkpt>
<trkpt lat="53.3496705" lon="18.4356612">
<ele>94</ele>
<time>2015-05-28T13:11:39Z</time>
</trkpt>
<trkpt lat="53.3496457" lon="18.4356937">
<ele>88</ele>
<time>2015-05-28T13:11:41Z</time>
</trkpt>
<trkpt lat="53.3496317" lon="18.4357178">
<ele>86</ele>
<time>2015-05-28T13:11:43Z</time>
</trkpt>
<trkpt lat="53.3496185" lon="18.4357515">
<ele>85</ele>
<time>2015-05-28T13:11:45Z</time>
</trkpt>
<trkpt lat="53.3496105" lon="18.4357779">
<ele>88</ele>
<time>2015-05-28T13:11:47Z</time>
</trkpt>
<trkpt lat="53.3496069" lon="18.4358099">
<ele>89</ele>
<time>2015-05-28T13:11:49Z</time>
</trkpt>
<trkpt lat="53.3496115" lon="18.4358487">
<ele>91</ele>
<time>2015-05-28T13:11:51Z</time>
</trkpt>
<trkpt lat="53.3496064" lon="18.4358906">
<ele>88</ele>
<time>2015-05-28T13:11:53Z</time>
</trkpt>
<trkpt lat="53.3495984" lon="18.4359377">
<ele>89</ele>
<time>2015-05-28T13:11:55Z</time>
</trkpt>
<trkpt lat="53.3495821" lon="18.4359769">
<ele>91</ele>
<time>2015-05-28T13:11:57Z</time>
</trkpt>
<trkpt lat="53.3495815" lon="18.4360225">
<ele>89</ele>
<time>2015-05-28T13:11:59Z</time>
</trkpt>
<trkpt lat="53.3495816" lon="18.4360657">
<ele>89</ele>
<time>2015-05-28T13:12:01Z</time>
</trkpt>
<trkpt lat="53.3495777" lon="18.4360964">
<ele>89</ele>
<time>2015-05-28T13:12:03Z</time>
</trkpt>
<trkpt lat="53.3495559" lon="18.4361034">
<ele>82</ele>
<time>2015-05-28T13:12:05Z</time>
</trkpt>
<trkpt lat="53.3495375" lon="18.4361193">
<ele>86</ele>
<time>2015-05-28T13:12:07Z</time>
</trkpt>
<trkpt lat="53.3495230" lon="18.4361360">
<ele>86</ele>
<time>2015-05-28T13:12:09Z</time>
</trkpt>
<trkpt lat="53.3495106" lon="18.4361565">
<ele>89</ele>
<time>2015-05-28T13:12:11Z</time>
</trkpt>
<trkpt lat="53.3495131" lon="18.4361897">
<ele>92</ele>
<time>2015-05-28T13:12:13Z</time>
</trkpt>
<trkpt lat="53.3495129" lon="18.4362238">
<ele>90</ele>
<time>2015-05-28T13:12:15Z</time>
</trkpt>
<trkpt lat="53.3495096" lon="18.436253">
<ele>91</ele>
<time>2015-05-28T13:12:17Z</time>
</trkpt>
<trkpt lat="53.3495062" lon="18.4362753">
<ele>92</ele>
<time>2015-05-28T13:12:19Z</time>
</trkpt>
<trkpt lat="53.3495067" lon="18.4362989">
<ele>92</ele>
<time>2015-05-28T13:12:21Z</time>
</trkpt>
<trkpt lat="53.3494965" lon="18.4363293">
<ele>92</ele>
<time>2015-05-28T13:12:23Z</time>
</trkpt>
<trkpt lat="53.3494924" lon="18.4363598">
<ele>91</ele>
<time>2015-05-28T13:12:25Z</time>
</trkpt>
<trkpt lat="53.3495002" lon="18.4364042">
<ele>94</ele>
<time>2015-05-28T13:12:27Z</time>
</trkpt>
<trkpt lat="53.3495096" lon="18.4364574">
<ele>97</ele>
<time>2015-05-28T13:12:29Z</time>
</trkpt>
<trkpt lat="53.3495201" lon="18.4365030">
<ele>99</ele>
<time>2015-05-28T13:12:31Z</time>
</trkpt>
<trkpt lat="53.3495187" lon="18.4365389">
<ele>98</ele>
<time>2015-05-28T13:12:33Z</time>
</trkpt>
<trkpt lat="53.3495159" lon="18.4365715">
<ele>102</ele>
<time>2015-05-28T13:12:35Z</time>
</trkpt>
<trkpt lat="53.3495167" lon="18.4366133">
<ele>105</ele>
<time>2015-05-28T13:12:37Z</time>
</trkpt>
<trkpt lat="53.3495126" lon="18.4366625">
<ele>102</ele>
<time>2015-05-28T13:12:39Z</time>
</trkpt>
<trkpt lat="53.3495112" lon="18.4367130">
<ele>101</ele>
<time>2015-05-28T13:12:41Z</time>
</trkpt>
<trkpt lat="53.3494921" lon="18.4367547">
<ele>101</ele>
<time>2015-05-28T13:12:43Z</time>
</trkpt>
<trkpt lat="53.3494730" lon="18.4367858">
<ele>101</ele>
<time>2015-05-28T13:12:45Z</time>
</trkpt>
<trkpt lat="53.3494488" lon="18.4368190">
<ele>100</ele>
<time>2015-05-28T13:12:47Z</time>
</trkpt>
<trkpt lat="53.3494330" lon="18.4368526">
<ele>95</ele>
<time>2015-05-28T13:12:49Z</time>
</trkpt>
<trkpt lat="53.3494217" lon="18.4368778">
<ele>94</ele>
<time>2015-05-28T13:12:51Z</time>
</trkpt>
<trkpt lat="53.3494026" lon="18.4369094">
<ele>95</ele>
<time>2015-05-28T13:12:53Z</time>
</trkpt>
<trkpt lat="53.3493874" lon="18.4369413">
<ele>96</ele>
<time>2015-05-28T13:12:55Z</time>
</trkpt>
<trkpt lat="53.3493744" lon="18.4369625">
<ele>97</ele>
<time>2015-05-28T13:12:57Z</time>
</trkpt>
<trkpt lat="53.3493825" lon="18.4369695">
<ele>95</ele>
<time>2015-05-28T13:12:59Z</time>
</trkpt>
<trkpt lat="53.3493979" lon="18.4369731">
<ele>96</ele>
<time>2015-05-28T13:13:01Z</time>
</trkpt>
<trkpt lat="53.3494106" lon="18.4369522">
<ele>94</ele>
<time>2015-05-28T13:13:03Z</time>
</trkpt>
<trkpt lat="53.3494303" lon="18.4369438">
<ele>97</ele>
<time>2015-05-28T13:13:05Z</time>
</trkpt>
<trkpt lat="53.3494320" lon="18.4369435">
<ele>97</ele>
<time>2015-05-28T13:13:07Z</time>
</trkpt>
<trkpt lat="53.3494328" lon="18.4369383">
<ele>96</ele>
<time>2015-05-28T13:13:09Z</time>
</trkpt>
<trkpt lat="53.3494350" lon="18.4369403">
<ele>97</ele>
<time>2015-05-28T13:13:11Z</time>
</trkpt>
<trkpt lat="53.3494363" lon="18.4369409">
<ele>97</ele>
<time>2015-05-28T13:13:13Z</time>
</trkpt>
<trkpt lat="53.3494339" lon="18.4369388">
<ele>98</ele>
<time>2015-05-28T13:13:15Z</time>
</trkpt>
<trkpt lat="53.3494353" lon="18.4369409">
<ele>98</ele>
<time>2015-05-28T13:13:17Z</time>
</trkpt>
<trkpt lat="53.3494381" lon="18.4369368">
<ele>97</ele>
<time>2015-05-28T13:13:19Z</time>
</trkpt>
<trkpt lat="53.3494379" lon="18.4369349">
<ele>97</ele>
<time>2015-05-28T13:13:21Z</time>
</trkpt>
<trkpt lat="53.3494336" lon="18.4369413">
<ele>98</ele>
<time>2015-05-28T13:13:23Z</time>
</trkpt>
<trkpt lat="53.3494281" lon="18.4369469">
<ele>97</ele>
<time>2015-05-28T13:13:25Z</time>
</trkpt>
<trkpt lat="53.3494254" lon="18.4369502">
<ele>97</ele>
<time>2015-05-28T13:13:27Z</time>
</trkpt>
<trkpt lat="53.3494152" lon="18.4369765">
<ele>98</ele>
<time>2015-05-28T13:13:29Z</time>
</trkpt>
<trkpt lat="53.3493892" lon="18.4370254">
<ele>98</ele>
<time>2015-05-28T13:13:31Z</time>
</trkpt>
<trkpt lat="53.3493824" lon="18.4370827">
<ele>95</ele>
<time>2015-05-28T13:13:33Z</time>
</trkpt>
<trkpt lat="53.3493874" lon="18.437145">
<ele>98</ele>
<time>2015-05-28T13:13:35Z</time>
</trkpt>
<trkpt lat="53.3493879" lon="18.4372058">
<ele>101</ele>
<time>2015-05-28T13:13:37Z</time>
</trkpt>
<trkpt lat="53.3493839" lon="18.4372619">
<ele>100</ele>
<time>2015-05-28T13:13:39Z</time>
</trkpt>
<trkpt lat="53.3493788" lon="18.4373190">
<ele>100</ele>
<time>2015-05-28T13:13:41Z</time>
</trkpt>
<trkpt lat="53.3493764" lon="18.4373713">
<ele>103</ele>
<time>2015-05-28T13:13:43Z</time>
</trkpt>
<trkpt lat="53.3493748" lon="18.4374303">
<ele>103</ele>
<time>2015-05-28T13:13:45Z</time>
</trkpt>
<trkpt lat="53.3493696" lon="18.4374942">
<ele>104</ele>
<time>2015-05-28T13:13:47Z</time>
</trkpt>
<trkpt lat="53.3493518" lon="18.4375405">
<ele>103</ele>
<time>2015-05-28T13:13:49Z</time>
</trkpt>
<trkpt lat="53.3493350" lon="18.4375566">
<ele>105</ele>
<time>2015-05-28T13:13:51Z</time>
</trkpt>
<trkpt lat="53.3493264" lon="18.4375659">
<ele>106</ele>
<time>2015-05-28T13:13:53Z</time>
</trkpt>
<trkpt lat="53.349325" lon="18.4375806">
<ele>105</ele>
<time>2015-05-28T13:13:55Z</time>
</trkpt>
<trkpt lat="53.3493177" lon="18.4376066">
<ele>105</ele>
<time>2015-05-28T13:13:57Z</time>
</trkpt>
<trkpt lat="53.3493013" lon="18.4376497">
<ele>105</ele>
<time>2015-05-28T13:13:59Z</time>
</trkpt>
<trkpt lat="53.3492799" lon="18.4376973">
<ele>106</ele>
<time>2015-05-28T13:14:01Z</time>
</trkpt>
<trkpt lat="53.3492635" lon="18.4377376">
<ele>107</ele>
<time>2015-05-28T13:14:03Z</time>
</trkpt>
<trkpt lat="53.3492535" lon="18.4377811">
<ele>106</ele>
<time>2015-05-28T13:14:05Z</time>
</trkpt>
<trkpt lat="53.3492458" lon="18.4378242">
<ele>105</ele>
<time>2015-05-28T13:14:07Z</time>
</trkpt>
<trkpt lat="53.3492299" lon="18.4378612">
<ele>105</ele>
<time>2015-05-28T13:14:09Z</time>
</trkpt>
<trkpt lat="53.3492092" lon="18.4378880">
<ele>102</ele>
<time>2015-05-28T13:14:11Z</time>
</trkpt>
<trkpt lat="53.3491941" lon="18.4379231">
<ele>104</ele>
<time>2015-05-28T13:14:13Z</time>
</trkpt>
<trkpt lat="53.3491817" lon="18.4379637">
<ele>105</ele>
<time>2015-05-28T13:14:15Z</time>
</trkpt>
<trkpt lat="53.3491699" lon="18.4380061">
<ele>102</ele>
<time>2015-05-28T13:14:17Z</time>
</trkpt>
<trkpt lat="53.3491436" lon="18.4380386">
<ele>101</ele>
<time>2015-05-28T13:14:19Z</time>
</trkpt>
<trkpt lat="53.3491193" lon="18.4380664">
<ele>98</ele>
<time>2015-05-28T13:14:21Z</time>
</trkpt>
<trkpt lat="53.3491043" lon="18.4380895">
<ele>98</ele>
<time>2015-05-28T13:14:23Z</time>
</trkpt>
<trkpt lat="53.3490893" lon="18.4381131">
<ele>97</ele>
<time>2015-05-28T13:14:25Z</time>
</trkpt>
<trkpt lat="53.3490852" lon="18.4381364">
<ele>96</ele>
<time>2015-05-28T13:14:27Z</time>
</trkpt>
<trkpt lat="53.3490748" lon="18.4381594">
<ele>95</ele>
<time>2015-05-28T13:14:29Z</time>
</trkpt>
<trkpt lat="53.3490478" lon="18.4381765">
<ele>93</ele>
<time>2015-05-28T13:14:31Z</time>
</trkpt>
<trkpt lat="53.3490141" lon="18.4381888">
<ele>95</ele>
<time>2015-05-28T13:14:33Z</time>
</trkpt>
<trkpt lat="53.3489827" lon="18.4381831">
<ele>94</ele>
<time>2015-05-28T13:14:35Z</time>
</trkpt>
<trkpt lat="53.3489522" lon="18.4381768">
<ele>94</ele>
<time>2015-05-28T13:14:37Z</time>
</trkpt>
<trkpt lat="53.3489370" lon="18.4381899">
<ele>94</ele>
<time>2015-05-28T13:14:39Z</time>
</trkpt>
<trkpt lat="53.3489318" lon="18.4381876">
<ele>94</ele>
<time>2015-05-28T13:14:41Z</time>
</trkpt>
<trkpt lat="53.3489259" lon="18.4381840">
<ele>94</ele>
<time>2015-05-28T13:14:43Z</time>
</trkpt>
<trkpt lat="53.3489199" lon="18.4381774">
<ele>94</ele>
<time>2015-05-28T13:14:45Z</time>
</trkpt>
<trkpt lat="53.3489163" lon="18.4381643">
<ele>94</ele>
<time>2015-05-28T13:14:47Z</time>
</trkpt>
<trkpt lat="53.3489138" lon="18.4381501">
<ele>94</ele>
<time>2015-05-28T13:14:49Z</time>
</trkpt>
<trkpt lat="53.3489056" lon="18.4381497">
<ele>95</ele>
<time>2015-05-28T13:14:51Z</time>
</trkpt>
<trkpt lat="53.3488999" lon="18.4381176">
<ele>95</ele>
<time>2015-05-28T13:14:53Z</time>
</trkpt>
<trkpt lat="53.3488919" lon="18.4380736">
<ele>95</ele>
<time>2015-05-28T13:14:55Z</time>
</trkpt>
<trkpt lat="53.3488327" lon="18.4386517">
<ele>101</ele>
<time>2015-05-28T13:18:00Z</time>
</trkpt>
<trkpt lat="53.3488669" lon="18.4387369">
<ele>88</ele>
<time>2015-05-28T13:18:03Z</time>
</trkpt>
<trkpt lat="53.3488549" lon="18.4387928">
<ele>84</ele>
<time>2015-05-28T13:18:05Z</time>
</trkpt>
<trkpt lat="53.3488485" lon="18.4388236">
<ele>98</ele>
<time>2015-05-28T13:18:07Z</time>
</trkpt>
<trkpt lat="53.3488283" lon="18.4388480">
<ele>92</ele>
<time>2015-05-28T13:18:09Z</time>
</trkpt>
<trkpt lat="53.3488029" lon="18.4388607">
<ele>98</ele>
<time>2015-05-28T13:18:11Z</time>
</trkpt>
<trkpt lat="53.3487888" lon="18.4388479">
<ele>99</ele>
<time>2015-05-28T13:18:13Z</time>
</trkpt>
<trkpt lat="53.3487815" lon="18.4388263">
<ele>109</ele>
<time>2015-05-28T13:18:15Z</time>
</trkpt>
<trkpt lat="53.3487783" lon="18.4387918">
<ele>105</ele>
<time>2015-05-28T13:18:17Z</time>
</trkpt>
<trkpt lat="53.3487773" lon="18.4387550">
<ele>105</ele>
<time>2015-05-28T13:18:19Z</time>
</trkpt>
<trkpt lat="53.3487952" lon="18.4387236">
<ele>106</ele>
<time>2015-05-28T13:18:21Z</time>
</trkpt>
<trkpt lat="53.3487998" lon="18.4387102">
<ele>104</ele>
<time>2015-05-28T13:18:23Z</time>
</trkpt>
<trkpt lat="53.3487913" lon="18.4387217">
<ele>103</ele>
<time>2015-05-28T13:18:25Z</time>
</trkpt>
<trkpt lat="53.3487853" lon="18.4387000">
<ele>104</ele>
<time>2015-05-28T13:18:27Z</time>
</trkpt>
<trkpt lat="53.3487784" lon="18.4386820">
<ele>106</ele>
<time>2015-05-28T13:18:29Z</time>
</trkpt>
<trkpt lat="53.3487762" lon="18.4386802">
<ele>106</ele>
<time>2015-05-28T13:18:31Z</time>
</trkpt>
<trkpt lat="53.3487723" lon="18.4386822">
<ele>106</ele>
<time>2015-05-28T13:18:33Z</time>
</trkpt>
<trkpt lat="53.3487705" lon="18.4386843">
<ele>106</ele>
<time>2015-05-28T13:18:35Z</time>
</trkpt>
<trkpt lat="53.3487702" lon="18.4386825">
<ele>106</ele>
<time>2015-05-28T13:18:37Z</time>
</trkpt>
<trkpt lat="53.3487701" lon="18.4386821">
<ele>106</ele>
<time>2015-05-28T13:18:39Z</time>
</trkpt>
<trkpt lat="53.3487700" lon="18.4386820">
<ele>106</ele>
<time>2015-05-28T13:18:41Z</time>
</trkpt>
<trkpt lat="" lon="">
<ele></ele>
<time>2015-05-28TZ</time>
</trkpt>
</trkseg>
</trk>
<wpt lat="" lon="">
	<name></name>
	<desc></desc>
	<cmt></cmt>
	<photoid></photoid>
	<type></type>
</wpt>
</gpx>
